<?xml version="1.0" encoding="UTF-8" standalone="no" ?>
<gpx xmlns="http://www.topografix.com/GPX/1/1" xmlns:xsi="http://www.w3.org/2001/XMLSchema-instance" xsi:schemaLocation="http://www.topografix.com/GPX/1/1 http://www.topografix.com/GPX/1/1/gpx.xsd" version="1.1" creator="VisuGPX - https://www.visugpx.com">
  <metadata>
    <name>Lourmarin Est-Ouest Luberon</name>
    <desc><![CDATA[beau parcours, bonne préparation pour des randos montagne]]></desc>
  </metadata>
  <trk>
    <name><![CDATA[lourmarin ouest est LUBERON ]]></name>
    <trkseg>
      <trkpt lat="43.76418" lon="5.36003">
        <ele>214.694214</ele>
        <time>2019-02-19T08:56:29Z</time>
      </trkpt>
      <trkpt lat="43.76417" lon="5.36027">
        <ele>212.98439</ele>
        <time>2019-02-19T08:56:44Z</time>
      </trkpt>
      <trkpt lat="43.76417" lon="5.36047">
        <ele>211.595047</ele>
        <time>2019-02-19T08:57:05Z</time>
      </trkpt>
      <trkpt lat="43.76413" lon="5.36069">
        <ele>210.049759</ele>
        <time>2019-02-19T08:57:20Z</time>
      </trkpt>
      <trkpt lat="43.76416" lon="5.36095">
        <ele>209.851852</ele>
        <time>2019-02-19T08:57:35Z</time>
      </trkpt>
      <trkpt lat="43.76426" lon="5.3612">
        <ele>211.493362</ele>
        <time>2019-02-19T08:57:50Z</time>
      </trkpt>
      <trkpt lat="43.76442" lon="5.36145">
        <ele>212.735596</ele>
        <time>2019-02-19T08:58:06Z</time>
      </trkpt>
      <trkpt lat="43.76456" lon="5.36169">
        <ele>213.627182</ele>
        <time>2019-02-19T08:58:21Z</time>
      </trkpt>
      <trkpt lat="43.7647" lon="5.36192">
        <ele>213.610062</ele>
        <time>2019-02-19T08:58:36Z</time>
      </trkpt>
      <trkpt lat="43.76485" lon="5.3621">
        <ele>213.242996</ele>
        <time>2019-02-19T08:58:52Z</time>
      </trkpt>
      <trkpt lat="43.76505" lon="5.36231">
        <ele>213.167984</ele>
        <time>2019-02-19T08:59:08Z</time>
      </trkpt>
      <trkpt lat="43.76523" lon="5.36247">
        <ele>214.890015</ele>
        <time>2019-02-19T08:59:24Z</time>
      </trkpt>
      <trkpt lat="43.76525" lon="5.36278">
        <ele>216.015091</ele>
        <time>2019-02-19T08:59:39Z</time>
      </trkpt>
      <trkpt lat="43.76533" lon="5.36297">
        <ele>217.218918</ele>
        <time>2019-02-19T08:59:55Z</time>
      </trkpt>
      <trkpt lat="43.76543" lon="5.36322">
        <ele>218.72171</ele>
        <time>2019-02-19T09:00:10Z</time>
      </trkpt>
      <trkpt lat="43.76553" lon="5.36344">
        <ele>220.001434</ele>
        <time>2019-02-19T09:00:25Z</time>
      </trkpt>
      <trkpt lat="43.76577" lon="5.36347">
        <ele>221.73616</ele>
        <time>2019-02-19T09:00:41Z</time>
      </trkpt>
      <trkpt lat="43.76593" lon="5.36359">
        <ele>222.234116</ele>
        <time>2019-02-19T09:00:57Z</time>
      </trkpt>
      <trkpt lat="43.7661" lon="5.36372">
        <ele>222.285187</ele>
        <time>2019-02-19T09:01:13Z</time>
      </trkpt>
      <trkpt lat="43.76623" lon="5.36394">
        <ele>222.596619</ele>
        <time>2019-02-19T09:01:28Z</time>
      </trkpt>
      <trkpt lat="43.76629" lon="5.36412">
        <ele>222.903702</ele>
        <time>2019-02-19T09:01:44Z</time>
      </trkpt>
      <trkpt lat="43.7665" lon="5.36438">
        <ele>223.773987</ele>
        <time>2019-02-19T09:02:00Z</time>
      </trkpt>
      <trkpt lat="43.76665" lon="5.3646">
        <ele>224.549164</ele>
        <time>2019-02-19T09:02:16Z</time>
      </trkpt>
      <trkpt lat="43.76686" lon="5.36472">
        <ele>224.931107</ele>
        <time>2019-02-19T09:02:31Z</time>
      </trkpt>
      <trkpt lat="43.76703" lon="5.36494">
        <ele>225.757782</ele>
        <time>2019-02-19T09:02:46Z</time>
      </trkpt>
      <trkpt lat="43.76721" lon="5.36514">
        <ele>226.56897</ele>
        <time>2019-02-19T09:03:01Z</time>
      </trkpt>
      <trkpt lat="43.76739" lon="5.36529">
        <ele>227.06871</ele>
        <time>2019-02-19T09:03:16Z</time>
      </trkpt>
      <trkpt lat="43.76761" lon="5.36541">
        <ele>227.423172</ele>
        <time>2019-02-19T09:03:32Z</time>
      </trkpt>
      <trkpt lat="43.76782" lon="5.36552">
        <ele>227.707581</ele>
        <time>2019-02-19T09:03:48Z</time>
      </trkpt>
      <trkpt lat="43.76802" lon="5.36562">
        <ele>228.087997</ele>
        <time>2019-02-19T09:04:04Z</time>
      </trkpt>
      <trkpt lat="43.76822" lon="5.36571">
        <ele>228.434143</ele>
        <time>2019-02-19T09:04:19Z</time>
      </trkpt>
      <trkpt lat="43.76841" lon="5.36582">
        <ele>228.934967</ele>
        <time>2019-02-19T09:04:35Z</time>
      </trkpt>
      <trkpt lat="43.76858" lon="5.36593">
        <ele>229.249634</ele>
        <time>2019-02-19T09:04:50Z</time>
      </trkpt>
      <trkpt lat="43.76876" lon="5.36602">
        <ele>229.67894</ele>
        <time>2019-02-19T09:05:06Z</time>
      </trkpt>
      <trkpt lat="43.76895" lon="5.3661">
        <ele>230.252899</ele>
        <time>2019-02-19T09:05:22Z</time>
      </trkpt>
      <trkpt lat="43.76915" lon="5.3662">
        <ele>231.158356</ele>
        <time>2019-02-19T09:05:37Z</time>
      </trkpt>
      <trkpt lat="43.76935" lon="5.36631">
        <ele>232.068542</ele>
        <time>2019-02-19T09:05:52Z</time>
      </trkpt>
      <trkpt lat="43.76953" lon="5.36634">
        <ele>232.381927</ele>
        <time>2019-02-19T09:06:07Z</time>
      </trkpt>
      <trkpt lat="43.76973" lon="5.36642">
        <ele>232.921448</ele>
        <time>2019-02-19T09:06:22Z</time>
      </trkpt>
      <trkpt lat="43.76992" lon="5.36649">
        <ele>233.3349</ele>
        <time>2019-02-19T09:06:38Z</time>
      </trkpt>
      <trkpt lat="43.77006" lon="5.36653">
        <ele>233.612793</ele>
        <time>2019-02-19T09:06:53Z</time>
      </trkpt>
      <trkpt lat="43.77026" lon="5.36659">
        <ele>234.065536</ele>
        <time>2019-02-19T09:07:09Z</time>
      </trkpt>
      <trkpt lat="43.77042" lon="5.36663">
        <ele>234.397247</ele>
        <time>2019-02-19T09:07:24Z</time>
      </trkpt>
      <trkpt lat="43.77065" lon="5.36667">
        <ele>234.781723</ele>
        <time>2019-02-19T09:07:39Z</time>
      </trkpt>
      <trkpt lat="43.77086" lon="5.36671">
        <ele>235.054794</ele>
        <time>2019-02-19T09:07:55Z</time>
      </trkpt>
      <trkpt lat="43.7711" lon="5.36673">
        <ele>235.123917</ele>
        <time>2019-02-19T09:08:11Z</time>
      </trkpt>
      <trkpt lat="43.77134" lon="5.36675">
        <ele>235.22934</ele>
        <time>2019-02-19T09:08:27Z</time>
      </trkpt>
      <trkpt lat="43.7715" lon="5.36676">
        <ele>235.302948</ele>
        <time>2019-02-19T09:08:42Z</time>
      </trkpt>
      <trkpt lat="43.77177" lon="5.36676">
        <ele>235.681305</ele>
        <time>2019-02-19T09:08:58Z</time>
      </trkpt>
      <trkpt lat="43.77198" lon="5.36675">
        <ele>236.390808</ele>
        <time>2019-02-19T09:09:13Z</time>
      </trkpt>
      <trkpt lat="43.77219" lon="5.36675">
        <ele>237.143967</ele>
        <time>2019-02-19T09:09:29Z</time>
      </trkpt>
      <trkpt lat="43.7724" lon="5.36676">
        <ele>237.87384</ele>
        <time>2019-02-19T09:09:44Z</time>
      </trkpt>
      <trkpt lat="43.77258" lon="5.36674">
        <ele>238.599335</ele>
        <time>2019-02-19T09:10:00Z</time>
      </trkpt>
      <trkpt lat="43.77275" lon="5.36662">
        <ele>239.140686</ele>
        <time>2019-02-19T09:10:15Z</time>
      </trkpt>
      <trkpt lat="43.77294" lon="5.3665">
        <ele>239.995499</ele>
        <time>2019-02-19T09:10:30Z</time>
      </trkpt>
      <trkpt lat="43.77307" lon="5.36639">
        <ele>240.627625</ele>
        <time>2019-02-19T09:10:46Z</time>
      </trkpt>
      <trkpt lat="43.77331" lon="5.36635">
        <ele>241.852203</ele>
        <time>2019-02-19T09:11:02Z</time>
      </trkpt>
      <trkpt lat="43.77344" lon="5.36633">
        <ele>242.662537</ele>
        <time>2019-02-19T09:11:18Z</time>
      </trkpt>
      <trkpt lat="43.77361" lon="5.36632">
        <ele>243.679993</ele>
        <time>2019-02-19T09:11:33Z</time>
      </trkpt>
      <trkpt lat="43.77377" lon="5.36617">
        <ele>244.645874</ele>
        <time>2019-02-19T09:11:49Z</time>
      </trkpt>
      <trkpt lat="43.77387" lon="5.36593">
        <ele>245.234558</ele>
        <time>2019-02-19T09:12:05Z</time>
      </trkpt>
      <trkpt lat="43.77398" lon="5.36572">
        <ele>245.922333</ele>
        <time>2019-02-19T09:12:20Z</time>
      </trkpt>
      <trkpt lat="43.77402" lon="5.36554">
        <ele>246.335419</ele>
        <time>2019-02-19T09:12:43Z</time>
      </trkpt>
      <trkpt lat="43.77409" lon="5.36532">
        <ele>247.036041</ele>
        <time>2019-02-19T09:12:58Z</time>
      </trkpt>
      <trkpt lat="43.77418" lon="5.3651">
        <ele>248.044952</ele>
        <time>2019-02-19T09:13:14Z</time>
      </trkpt>
      <trkpt lat="43.77436" lon="5.36504">
        <ele>249.752777</ele>
        <time>2019-02-19T09:13:29Z</time>
      </trkpt>
      <trkpt lat="43.77454" lon="5.36493">
        <ele>251.623276</ele>
        <time>2019-02-19T09:13:45Z</time>
      </trkpt>
      <trkpt lat="43.77466" lon="5.36475">
        <ele>252.984955</ele>
        <time>2019-02-19T09:14:00Z</time>
      </trkpt>
      <trkpt lat="43.77484" lon="5.36452">
        <ele>254.684555</ele>
        <time>2019-02-19T09:14:16Z</time>
      </trkpt>
      <trkpt lat="43.77498" lon="5.3643">
        <ele>255.819565</ele>
        <time>2019-02-19T09:14:31Z</time>
      </trkpt>
      <trkpt lat="43.77512" lon="5.36407">
        <ele>257.114258</ele>
        <time>2019-02-19T09:14:46Z</time>
      </trkpt>
      <trkpt lat="43.77526" lon="5.36387">
        <ele>258.500488</ele>
        <time>2019-02-19T09:15:02Z</time>
      </trkpt>
      <trkpt lat="43.77538" lon="5.36365">
        <ele>259.682617</ele>
        <time>2019-02-19T09:15:17Z</time>
      </trkpt>
      <trkpt lat="43.77551" lon="5.36344">
        <ele>260.891113</ele>
        <time>2019-02-19T09:15:33Z</time>
      </trkpt>
      <trkpt lat="43.77564" lon="5.36328">
        <ele>262.014618</ele>
        <time>2019-02-19T09:15:48Z</time>
      </trkpt>
      <trkpt lat="43.77576" lon="5.36306">
        <ele>262.71817</ele>
        <time>2019-02-19T09:16:04Z</time>
      </trkpt>
      <trkpt lat="43.77598" lon="5.36297">
        <ele>264.415436</ele>
        <time>2019-02-19T09:16:20Z</time>
      </trkpt>
      <trkpt lat="43.77612" lon="5.36302">
        <ele>265.741882</ele>
        <time>2019-02-19T09:16:45Z</time>
      </trkpt>
      <trkpt lat="43.77628" lon="5.36314">
        <ele>267.406464</ele>
        <time>2019-02-19T09:17:01Z</time>
      </trkpt>
      <trkpt lat="43.77638" lon="5.3633">
        <ele>268.559265</ele>
        <time>2019-02-19T09:17:16Z</time>
      </trkpt>
      <trkpt lat="43.77652" lon="5.36352">
        <ele>270.111816</ele>
        <time>2019-02-19T09:17:32Z</time>
      </trkpt>
      <trkpt lat="43.77661" lon="5.36376">
        <ele>271.446503</ele>
        <time>2019-02-19T09:17:47Z</time>
      </trkpt>
      <trkpt lat="43.77671" lon="5.36399">
        <ele>273.080933</ele>
        <time>2019-02-19T09:18:03Z</time>
      </trkpt>
      <trkpt lat="43.77684" lon="5.36425">
        <ele>274.604523</ele>
        <time>2019-02-19T09:18:18Z</time>
      </trkpt>
      <trkpt lat="43.77695" lon="5.36446">
        <ele>275.197388</ele>
        <time>2019-02-19T09:18:33Z</time>
      </trkpt>
      <trkpt lat="43.77706" lon="5.3647">
        <ele>275.934509</ele>
        <time>2019-02-19T09:18:48Z</time>
      </trkpt>
      <trkpt lat="43.7772" lon="5.36494">
        <ele>277.142517</ele>
        <time>2019-02-19T09:19:04Z</time>
      </trkpt>
      <trkpt lat="43.77731" lon="5.3651">
        <ele>277.606293</ele>
        <time>2019-02-19T09:19:19Z</time>
      </trkpt>
      <trkpt lat="43.77749" lon="5.36519">
        <ele>279.057007</ele>
        <time>2019-02-19T09:19:35Z</time>
      </trkpt>
      <trkpt lat="43.77767" lon="5.36516">
        <ele>280.826294</ele>
        <time>2019-02-19T09:19:50Z</time>
      </trkpt>
      <trkpt lat="43.77782" lon="5.36518">
        <ele>281.766357</ele>
        <time>2019-02-19T09:20:06Z</time>
      </trkpt>
      <trkpt lat="43.77798" lon="5.36529">
        <ele>282.232971</ele>
        <time>2019-02-19T09:20:22Z</time>
      </trkpt>
      <trkpt lat="43.77802" lon="5.36547">
        <ele>281.328705</ele>
        <time>2019-02-19T09:20:54Z</time>
      </trkpt>
      <trkpt lat="43.77802" lon="5.36576">
        <ele>279.112274</ele>
        <time>2019-02-19T09:21:10Z</time>
      </trkpt>
      <trkpt lat="43.77813" lon="5.36597">
        <ele>278.970367</ele>
        <time>2019-02-19T09:21:25Z</time>
      </trkpt>
      <trkpt lat="43.77831" lon="5.36607">
        <ele>280.288208</ele>
        <time>2019-02-19T09:21:41Z</time>
      </trkpt>
      <trkpt lat="43.77857" lon="5.36619">
        <ele>281.962036</ele>
        <time>2019-02-19T09:21:56Z</time>
      </trkpt>
      <trkpt lat="43.77865" lon="5.36644">
        <ele>281.496399</ele>
        <time>2019-02-19T09:22:12Z</time>
      </trkpt>
      <trkpt lat="43.77876" lon="5.36657">
        <ele>282.023254</ele>
        <time>2019-02-19T09:22:29Z</time>
      </trkpt>
      <trkpt lat="43.77887" lon="5.36669">
        <ele>282.961212</ele>
        <time>2019-02-19T09:22:51Z</time>
      </trkpt>
      <trkpt lat="43.77899" lon="5.3666">
        <ele>284.354218</ele>
        <time>2019-02-19T09:23:09Z</time>
      </trkpt>
      <trkpt lat="43.77911" lon="5.36649">
        <ele>285.813416</ele>
        <time>2019-02-19T09:23:28Z</time>
      </trkpt>
      <trkpt lat="43.77923" lon="5.36639">
        <ele>287.212158</ele>
        <time>2019-02-19T09:23:45Z</time>
      </trkpt>
      <trkpt lat="43.77935" lon="5.36629">
        <ele>288.434204</ele>
        <time>2019-02-19T09:24:03Z</time>
      </trkpt>
      <trkpt lat="43.77948" lon="5.36623">
        <ele>289.628967</ele>
        <time>2019-02-19T09:24:21Z</time>
      </trkpt>
      <trkpt lat="43.77972" lon="5.36608">
        <ele>291.742737</ele>
        <time>2019-02-19T09:24:36Z</time>
      </trkpt>
      <trkpt lat="43.77984" lon="5.36597">
        <ele>292.81781</ele>
        <time>2019-02-19T09:24:52Z</time>
      </trkpt>
      <trkpt lat="43.77997" lon="5.36587">
        <ele>293.776886</ele>
        <time>2019-02-19T09:26:49Z</time>
      </trkpt>
      <trkpt lat="43.78007" lon="5.36574">
        <ele>295.285461</ele>
        <time>2019-02-19T09:27:07Z</time>
      </trkpt>
      <trkpt lat="43.78021" lon="5.36561">
        <ele>297.496735</ele>
        <time>2019-02-19T09:27:22Z</time>
      </trkpt>
      <trkpt lat="43.78034" lon="5.36552">
        <ele>299.45166</ele>
        <time>2019-02-19T09:27:38Z</time>
      </trkpt>
      <trkpt lat="43.78045" lon="5.36541">
        <ele>301.203979</ele>
        <time>2019-02-19T09:27:55Z</time>
      </trkpt>
      <trkpt lat="43.78056" lon="5.3653">
        <ele>302.908997</ele>
        <time>2019-02-19T09:28:10Z</time>
      </trkpt>
      <trkpt lat="43.78069" lon="5.36521">
        <ele>304.700989</ele>
        <time>2019-02-19T09:28:30Z</time>
      </trkpt>
      <trkpt lat="43.78081" lon="5.36511">
        <ele>306.425873</ele>
        <time>2019-02-19T09:28:46Z</time>
      </trkpt>
      <trkpt lat="43.78098" lon="5.365">
        <ele>310.177124</ele>
        <time>2019-02-19T09:29:02Z</time>
      </trkpt>
      <trkpt lat="43.78117" lon="5.36492">
        <ele>314.433685</ele>
        <time>2019-02-19T09:29:18Z</time>
      </trkpt>
      <trkpt lat="43.78128" lon="5.36482">
        <ele>317.10849</ele>
        <time>2019-02-19T09:29:40Z</time>
      </trkpt>
      <trkpt lat="43.78142" lon="5.36478">
        <ele>319.823364</ele>
        <time>2019-02-19T09:30:00Z</time>
      </trkpt>
      <trkpt lat="43.78155" lon="5.36472">
        <ele>322.440338</ele>
        <time>2019-02-19T09:30:16Z</time>
      </trkpt>
      <trkpt lat="43.78168" lon="5.36465">
        <ele>324.868805</ele>
        <time>2019-02-19T09:30:33Z</time>
      </trkpt>
      <trkpt lat="43.78182" lon="5.36467">
        <ele>327.625732</ele>
        <time>2019-02-19T09:30:52Z</time>
      </trkpt>
      <trkpt lat="43.78195" lon="5.36462">
        <ele>330.259583</ele>
        <time>2019-02-19T09:31:14Z</time>
      </trkpt>
      <trkpt lat="43.78209" lon="5.36459">
        <ele>333.038361</ele>
        <time>2019-02-19T09:31:29Z</time>
      </trkpt>
      <trkpt lat="43.78223" lon="5.36462">
        <ele>335.893005</ele>
        <time>2019-02-19T09:31:54Z</time>
      </trkpt>
      <trkpt lat="43.78241" lon="5.36457">
        <ele>339.575989</ele>
        <time>2019-02-19T09:32:10Z</time>
      </trkpt>
      <trkpt lat="43.78254" lon="5.36457">
        <ele>342.546936</ele>
        <time>2019-02-19T09:32:26Z</time>
      </trkpt>
      <trkpt lat="43.78268" lon="5.36458">
        <ele>345.885895</ele>
        <time>2019-02-19T09:32:51Z</time>
      </trkpt>
      <trkpt lat="43.78283" lon="5.36455">
        <ele>349.463409</ele>
        <time>2019-02-19T09:33:07Z</time>
      </trkpt>
      <trkpt lat="43.78297" lon="5.36457">
        <ele>352.716125</ele>
        <time>2019-02-19T09:33:24Z</time>
      </trkpt>
      <trkpt lat="43.78305" lon="5.36472">
        <ele>354.30127</ele>
        <time>2019-02-19T09:33:47Z</time>
      </trkpt>
      <trkpt lat="43.78319" lon="5.36472">
        <ele>357.651306</ele>
        <time>2019-02-19T09:34:03Z</time>
      </trkpt>
      <trkpt lat="43.78332" lon="5.36463">
        <ele>360.91098</ele>
        <time>2019-02-19T09:34:20Z</time>
      </trkpt>
      <trkpt lat="43.78326" lon="5.36446">
        <ele>360.194336</ele>
        <time>2019-02-19T09:34:38Z</time>
      </trkpt>
      <trkpt lat="43.7834" lon="5.3644">
        <ele>363.822357</ele>
        <time>2019-02-19T09:35:03Z</time>
      </trkpt>
      <trkpt lat="43.78355" lon="5.36445">
        <ele>367.361267</ele>
        <time>2019-02-19T09:35:20Z</time>
      </trkpt>
      <trkpt lat="43.78368" lon="5.36456">
        <ele>369.754364</ele>
        <time>2019-02-19T09:35:45Z</time>
      </trkpt>
      <trkpt lat="43.78382" lon="5.36456">
        <ele>373.140533</ele>
        <time>2019-02-19T09:36:03Z</time>
      </trkpt>
      <trkpt lat="43.78396" lon="5.36453">
        <ele>376.605957</ele>
        <time>2019-02-19T09:36:21Z</time>
      </trkpt>
      <trkpt lat="43.78416" lon="5.36451">
        <ele>381.641724</ele>
        <time>2019-02-19T09:36:36Z</time>
      </trkpt>
      <trkpt lat="43.78418" lon="5.36471">
        <ele>379.859741</ele>
        <time>2019-02-19T09:36:54Z</time>
      </trkpt>
      <trkpt lat="43.78425" lon="5.36487">
        <ele>380.680206</ele>
        <time>2019-02-19T09:37:20Z</time>
      </trkpt>
      <trkpt lat="43.78442" lon="5.36479">
        <ele>387.878418</ele>
        <time>2019-02-19T09:37:35Z</time>
      </trkpt>
      <trkpt lat="43.78447" lon="5.36499">
        <ele>386.904419</ele>
        <time>2019-02-19T09:37:51Z</time>
      </trkpt>
      <trkpt lat="43.78453" lon="5.36517">
        <ele>391.720215</ele>
        <time>2019-02-19T09:38:07Z</time>
      </trkpt>
      <trkpt lat="43.78473" lon="5.3651">
        <ele>397.205627</ele>
        <time>2019-02-19T09:38:22Z</time>
      </trkpt>
      <trkpt lat="43.78484" lon="5.36521">
        <ele>401.785919</ele>
        <time>2019-02-19T09:38:43Z</time>
      </trkpt>
      <trkpt lat="43.78494" lon="5.36534">
        <ele>405.235352</ele>
        <time>2019-02-19T09:39:01Z</time>
      </trkpt>
      <trkpt lat="43.78504" lon="5.36548">
        <ele>407.713104</ele>
        <time>2019-02-19T09:39:20Z</time>
      </trkpt>
      <trkpt lat="43.78519" lon="5.36551">
        <ele>409.729309</ele>
        <time>2019-02-19T09:39:47Z</time>
      </trkpt>
      <trkpt lat="43.7853" lon="5.36562">
        <ele>410.828857</ele>
        <time>2019-02-19T09:40:13Z</time>
      </trkpt>
      <trkpt lat="43.78547" lon="5.36566">
        <ele>412.536438</ele>
        <time>2019-02-19T09:40:29Z</time>
      </trkpt>
      <trkpt lat="43.78561" lon="5.3657">
        <ele>413.556396</ele>
        <time>2019-02-19T09:40:47Z</time>
      </trkpt>
      <trkpt lat="43.78576" lon="5.36572">
        <ele>414.850891</ele>
        <time>2019-02-19T09:41:14Z</time>
      </trkpt>
      <trkpt lat="43.78595" lon="5.36567">
        <ele>418.488068</ele>
        <time>2019-02-19T09:41:29Z</time>
      </trkpt>
      <trkpt lat="43.78609" lon="5.36565">
        <ele>421.380371</ele>
        <time>2019-02-19T09:41:48Z</time>
      </trkpt>
      <trkpt lat="43.7862" lon="5.36577">
        <ele>421.354553</ele>
        <time>2019-02-19T09:42:06Z</time>
      </trkpt>
      <trkpt lat="43.78633" lon="5.36576">
        <ele>423.93396</ele>
        <time>2019-02-19T09:42:32Z</time>
      </trkpt>
      <trkpt lat="43.78639" lon="5.36594">
        <ele>425.918762</ele>
        <time>2019-02-19T09:42:48Z</time>
      </trkpt>
      <trkpt lat="43.78658" lon="5.36587">
        <ele>427.334595</ele>
        <time>2019-02-19T09:43:03Z</time>
      </trkpt>
      <trkpt lat="43.78673" lon="5.36595">
        <ele>430.346283</ele>
        <time>2019-02-19T09:43:19Z</time>
      </trkpt>
      <trkpt lat="43.78683" lon="5.36609">
        <ele>432.662323</ele>
        <time>2019-02-19T09:43:37Z</time>
      </trkpt>
      <trkpt lat="43.78694" lon="5.3662">
        <ele>434.318298</ele>
        <time>2019-02-19T09:43:53Z</time>
      </trkpt>
      <trkpt lat="43.78711" lon="5.36611">
        <ele>434.093048</ele>
        <time>2019-02-19T09:44:08Z</time>
      </trkpt>
      <trkpt lat="43.78724" lon="5.36618">
        <ele>434.885101</ele>
        <time>2019-02-19T09:44:31Z</time>
      </trkpt>
      <trkpt lat="43.7874" lon="5.36618">
        <ele>435.316833</ele>
        <time>2019-02-19T09:44:46Z</time>
      </trkpt>
      <trkpt lat="43.78759" lon="5.36616">
        <ele>436.25119</ele>
        <time>2019-02-19T09:45:02Z</time>
      </trkpt>
      <trkpt lat="43.78774" lon="5.36614">
        <ele>437.386841</ele>
        <time>2019-02-19T09:45:17Z</time>
      </trkpt>
      <trkpt lat="43.78788" lon="5.36621">
        <ele>438.192688</ele>
        <time>2019-02-19T09:45:33Z</time>
      </trkpt>
      <trkpt lat="43.78799" lon="5.36632">
        <ele>438.429382</ele>
        <time>2019-02-19T09:45:50Z</time>
      </trkpt>
      <trkpt lat="43.78805" lon="5.36655">
        <ele>437.619751</ele>
        <time>2019-02-19T09:46:06Z</time>
      </trkpt>
      <trkpt lat="43.78822" lon="5.3666">
        <ele>438.011627</ele>
        <time>2019-02-19T09:46:22Z</time>
      </trkpt>
      <trkpt lat="43.78835" lon="5.36666">
        <ele>438.241425</ele>
        <time>2019-02-19T09:46:38Z</time>
      </trkpt>
      <trkpt lat="43.78849" lon="5.36677">
        <ele>441.833435</ele>
        <time>2019-02-19T09:46:54Z</time>
      </trkpt>
      <trkpt lat="43.78867" lon="5.36684">
        <ele>444.257599</ele>
        <time>2019-02-19T09:47:10Z</time>
      </trkpt>
      <trkpt lat="43.7888" lon="5.36697">
        <ele>446.80011</ele>
        <time>2019-02-19T09:47:25Z</time>
      </trkpt>
      <trkpt lat="43.78893" lon="5.36708">
        <ele>448.262939</ele>
        <time>2019-02-19T09:47:42Z</time>
      </trkpt>
      <trkpt lat="43.78907" lon="5.36719">
        <ele>448.909912</ele>
        <time>2019-02-19T09:47:58Z</time>
      </trkpt>
      <trkpt lat="43.7892" lon="5.36729">
        <ele>449.300903</ele>
        <time>2019-02-19T09:48:14Z</time>
      </trkpt>
      <trkpt lat="43.78935" lon="5.36739">
        <ele>450.876282</ele>
        <time>2019-02-19T09:48:29Z</time>
      </trkpt>
      <trkpt lat="43.78959" lon="5.3673">
        <ele>452.902008</ele>
        <time>2019-02-19T09:48:45Z</time>
      </trkpt>
      <trkpt lat="43.78978" lon="5.36735">
        <ele>454.386719</ele>
        <time>2019-02-19T09:49:01Z</time>
      </trkpt>
      <trkpt lat="43.7897" lon="5.36761">
        <ele>454.335083</ele>
        <time>2019-02-19T09:49:16Z</time>
      </trkpt>
      <trkpt lat="43.78989" lon="5.36784">
        <ele>456.132843</ele>
        <time>2019-02-19T09:49:32Z</time>
      </trkpt>
      <trkpt lat="43.7898" lon="5.36808">
        <ele>458.1922</ele>
        <time>2019-02-19T09:49:48Z</time>
      </trkpt>
      <trkpt lat="43.78973" lon="5.36828">
        <ele>460.708679</ele>
        <time>2019-02-19T09:50:05Z</time>
      </trkpt>
      <trkpt lat="43.78987" lon="5.36847">
        <ele>460.12149</ele>
        <time>2019-02-19T09:50:20Z</time>
      </trkpt>
      <trkpt lat="43.79006" lon="5.36858">
        <ele>459.880554</ele>
        <time>2019-02-19T09:50:36Z</time>
      </trkpt>
      <trkpt lat="43.79018" lon="5.36872">
        <ele>463.142822</ele>
        <time>2019-02-19T09:50:52Z</time>
      </trkpt>
      <trkpt lat="43.79022" lon="5.36893">
        <ele>464.406097</ele>
        <time>2019-02-19T09:51:07Z</time>
      </trkpt>
      <trkpt lat="43.7904" lon="5.36901">
        <ele>467.646759</ele>
        <time>2019-02-19T09:51:23Z</time>
      </trkpt>
      <trkpt lat="43.79038" lon="5.36925">
        <ele>467.745026</ele>
        <time>2019-02-19T09:51:39Z</time>
      </trkpt>
      <trkpt lat="43.79045" lon="5.36942">
        <ele>468.871826</ele>
        <time>2019-02-19T09:51:58Z</time>
      </trkpt>
      <trkpt lat="43.79046" lon="5.36967">
        <ele>469.264343</ele>
        <time>2019-02-19T09:52:13Z</time>
      </trkpt>
      <trkpt lat="43.7906" lon="5.36981">
        <ele>469.10788</ele>
        <time>2019-02-19T09:52:29Z</time>
      </trkpt>
      <trkpt lat="43.79071" lon="5.36994">
        <ele>468.217316</ele>
        <time>2019-02-19T09:52:53Z</time>
      </trkpt>
      <trkpt lat="43.79082" lon="5.37006">
        <ele>467.40271</ele>
        <time>2019-02-19T09:53:08Z</time>
      </trkpt>
      <trkpt lat="43.79097" lon="5.37013">
        <ele>469.528778</ele>
        <time>2019-02-19T09:53:24Z</time>
      </trkpt>
      <trkpt lat="43.79108" lon="5.37025">
        <ele>471.1297</ele>
        <time>2019-02-19T09:53:41Z</time>
      </trkpt>
      <trkpt lat="43.7913" lon="5.37035">
        <ele>473.614288</ele>
        <time>2019-02-19T09:53:57Z</time>
      </trkpt>
      <trkpt lat="43.79146" lon="5.37037">
        <ele>475.171509</ele>
        <time>2019-02-19T09:54:16Z</time>
      </trkpt>
      <trkpt lat="43.7916" lon="5.3705">
        <ele>475.893463</ele>
        <time>2019-02-19T09:54:32Z</time>
      </trkpt>
      <trkpt lat="43.79167" lon="5.37067">
        <ele>475.285461</ele>
        <time>2019-02-19T09:54:49Z</time>
      </trkpt>
      <trkpt lat="43.79185" lon="5.37081">
        <ele>476.221649</ele>
        <time>2019-02-19T09:55:05Z</time>
      </trkpt>
      <trkpt lat="43.79196" lon="5.37094">
        <ele>478.410583</ele>
        <time>2019-02-19T09:55:21Z</time>
      </trkpt>
      <trkpt lat="43.79207" lon="5.37108">
        <ele>480.871521</ele>
        <time>2019-02-19T09:55:37Z</time>
      </trkpt>
      <trkpt lat="43.79223" lon="5.37113">
        <ele>482.538574</ele>
        <time>2019-02-19T09:55:53Z</time>
      </trkpt>
      <trkpt lat="43.79239" lon="5.37114">
        <ele>483.718079</ele>
        <time>2019-02-19T09:56:08Z</time>
      </trkpt>
      <trkpt lat="43.79254" lon="5.37107">
        <ele>484.611115</ele>
        <time>2019-02-19T09:56:24Z</time>
      </trkpt>
      <trkpt lat="43.79267" lon="5.371">
        <ele>485.565552</ele>
        <time>2019-02-19T09:56:40Z</time>
      </trkpt>
      <trkpt lat="43.79282" lon="5.37096">
        <ele>486.772156</ele>
        <time>2019-02-19T09:56:56Z</time>
      </trkpt>
      <trkpt lat="43.79294" lon="5.37089">
        <ele>487.331573</ele>
        <time>2019-02-19T09:57:13Z</time>
      </trkpt>
      <trkpt lat="43.79309" lon="5.37084">
        <ele>488.037811</ele>
        <time>2019-02-19T09:57:28Z</time>
      </trkpt>
      <trkpt lat="43.79322" lon="5.37076">
        <ele>490.328094</ele>
        <time>2019-02-19T09:57:44Z</time>
      </trkpt>
      <trkpt lat="43.79335" lon="5.37072">
        <ele>492.292755</ele>
        <time>2019-02-19T09:58:04Z</time>
      </trkpt>
      <trkpt lat="43.79349" lon="5.37068">
        <ele>495.259094</ele>
        <time>2019-02-19T09:58:19Z</time>
      </trkpt>
      <trkpt lat="43.79363" lon="5.37066">
        <ele>497.728058</ele>
        <time>2019-02-19T09:58:38Z</time>
      </trkpt>
      <trkpt lat="43.79378" lon="5.37058">
        <ele>500.999969</ele>
        <time>2019-02-19T09:58:53Z</time>
      </trkpt>
      <trkpt lat="43.79392" lon="5.37057">
        <ele>503.184143</ele>
        <time>2019-02-19T09:59:08Z</time>
      </trkpt>
      <trkpt lat="43.79406" lon="5.37044">
        <ele>506.024139</ele>
        <time>2019-02-19T09:59:24Z</time>
      </trkpt>
      <trkpt lat="43.79419" lon="5.3704">
        <ele>507.945801</ele>
        <time>2019-02-19T09:59:44Z</time>
      </trkpt>
      <trkpt lat="43.79433" lon="5.37044">
        <ele>509.403259</ele>
        <time>2019-02-19T10:00:00Z</time>
      </trkpt>
      <trkpt lat="43.79447" lon="5.37034">
        <ele>511.473602</ele>
        <time>2019-02-19T10:00:16Z</time>
      </trkpt>
      <trkpt lat="43.7946" lon="5.3703">
        <ele>513.022766</ele>
        <time>2019-02-19T10:00:37Z</time>
      </trkpt>
      <trkpt lat="43.79474" lon="5.37022">
        <ele>514.404053</ele>
        <time>2019-02-19T10:00:55Z</time>
      </trkpt>
      <trkpt lat="43.79488" lon="5.37024">
        <ele>515.943359</ele>
        <time>2019-02-19T10:01:22Z</time>
      </trkpt>
      <trkpt lat="43.79509" lon="5.37013">
        <ele>517.451843</ele>
        <time>2019-02-19T10:01:38Z</time>
      </trkpt>
      <trkpt lat="43.79537" lon="5.37014">
        <ele>520.003662</ele>
        <time>2019-02-19T10:01:53Z</time>
      </trkpt>
      <trkpt lat="43.7955" lon="5.37021">
        <ele>521.677185</ele>
        <time>2019-02-19T10:02:23Z</time>
      </trkpt>
      <trkpt lat="43.79563" lon="5.37026">
        <ele>523.295776</ele>
        <time>2019-02-19T10:02:38Z</time>
      </trkpt>
      <trkpt lat="43.79578" lon="5.37026">
        <ele>524.672363</ele>
        <time>2019-02-19T10:02:53Z</time>
      </trkpt>
      <trkpt lat="43.79591" lon="5.37022">
        <ele>525.63385</ele>
        <time>2019-02-19T10:03:09Z</time>
      </trkpt>
      <trkpt lat="43.79605" lon="5.37016">
        <ele>526.419922</ele>
        <time>2019-02-19T10:03:28Z</time>
      </trkpt>
      <trkpt lat="43.79618" lon="5.3701">
        <ele>527.026978</ele>
        <time>2019-02-19T10:03:46Z</time>
      </trkpt>
      <trkpt lat="43.7963" lon="5.36998">
        <ele>527.385376</ele>
        <time>2019-02-19T10:04:05Z</time>
      </trkpt>
      <trkpt lat="43.79643" lon="5.36991">
        <ele>530.462097</ele>
        <time>2019-02-19T10:04:23Z</time>
      </trkpt>
      <trkpt lat="43.79655" lon="5.36979">
        <ele>534.826111</ele>
        <time>2019-02-19T10:04:38Z</time>
      </trkpt>
      <trkpt lat="43.79674" lon="5.36977">
        <ele>538.10321</ele>
        <time>2019-02-19T10:04:54Z</time>
      </trkpt>
      <trkpt lat="43.79687" lon="5.36984">
        <ele>539.296448</ele>
        <time>2019-02-19T10:05:15Z</time>
      </trkpt>
      <trkpt lat="43.797" lon="5.36991">
        <ele>540.379089</ele>
        <time>2019-02-19T10:05:35Z</time>
      </trkpt>
      <trkpt lat="43.79713" lon="5.36999">
        <ele>541.16925</ele>
        <time>2019-02-19T10:05:51Z</time>
      </trkpt>
      <trkpt lat="43.79723" lon="5.37012">
        <ele>543.676025</ele>
        <time>2019-02-19T10:06:09Z</time>
      </trkpt>
      <trkpt lat="43.7973" lon="5.37027">
        <ele>545.221558</ele>
        <time>2019-02-19T10:06:24Z</time>
      </trkpt>
      <trkpt lat="43.79739" lon="5.37043">
        <ele>546.426025</ele>
        <time>2019-02-19T10:06:40Z</time>
      </trkpt>
      <trkpt lat="43.79751" lon="5.37055">
        <ele>547.62677</ele>
        <time>2019-02-19T10:07:00Z</time>
      </trkpt>
      <trkpt lat="43.79756" lon="5.37074">
        <ele>548.519348</ele>
        <time>2019-02-19T10:07:16Z</time>
      </trkpt>
      <trkpt lat="43.79769" lon="5.37081">
        <ele>552.588257</ele>
        <time>2019-02-19T10:07:31Z</time>
      </trkpt>
      <trkpt lat="43.79775" lon="5.37099">
        <ele>556.15509</ele>
        <time>2019-02-19T10:07:48Z</time>
      </trkpt>
      <trkpt lat="43.79782" lon="5.37115">
        <ele>559.859009</ele>
        <time>2019-02-19T10:08:06Z</time>
      </trkpt>
      <trkpt lat="43.79787" lon="5.37136">
        <ele>562.612427</ele>
        <time>2019-02-19T10:08:21Z</time>
      </trkpt>
      <trkpt lat="43.79794" lon="5.37154">
        <ele>565.03894</ele>
        <time>2019-02-19T10:08:47Z</time>
      </trkpt>
      <trkpt lat="43.79798" lon="5.37175">
        <ele>566.892883</ele>
        <time>2019-02-19T10:09:05Z</time>
      </trkpt>
      <trkpt lat="43.79806" lon="5.37192">
        <ele>568.287109</ele>
        <time>2019-02-19T10:09:28Z</time>
      </trkpt>
      <trkpt lat="43.79814" lon="5.37209">
        <ele>568.888367</ele>
        <time>2019-02-19T10:09:44Z</time>
      </trkpt>
      <trkpt lat="43.79824" lon="5.37221">
        <ele>568.671875</ele>
        <time>2019-02-19T10:10:03Z</time>
      </trkpt>
      <trkpt lat="43.79828" lon="5.3724">
        <ele>567.965088</ele>
        <time>2019-02-19T10:10:19Z</time>
      </trkpt>
      <trkpt lat="43.79835" lon="5.37257">
        <ele>568.159668</ele>
        <time>2019-02-19T10:10:37Z</time>
      </trkpt>
      <trkpt lat="43.79845" lon="5.3727">
        <ele>571.86731</ele>
        <time>2019-02-19T10:10:54Z</time>
      </trkpt>
      <trkpt lat="43.79852" lon="5.37288">
        <ele>574.842346</ele>
        <time>2019-02-19T10:11:14Z</time>
      </trkpt>
      <trkpt lat="43.7986" lon="5.37304">
        <ele>577.278931</ele>
        <time>2019-02-19T10:11:32Z</time>
      </trkpt>
      <trkpt lat="43.7987" lon="5.37317">
        <ele>579.293579</ele>
        <time>2019-02-19T10:11:52Z</time>
      </trkpt>
      <trkpt lat="43.79879" lon="5.37335">
        <ele>581.125854</ele>
        <time>2019-02-19T10:12:08Z</time>
      </trkpt>
      <trkpt lat="43.79885" lon="5.37353">
        <ele>584.549927</ele>
        <time>2019-02-19T10:12:33Z</time>
      </trkpt>
      <trkpt lat="43.79891" lon="5.37371">
        <ele>587.51062</ele>
        <time>2019-02-19T10:12:52Z</time>
      </trkpt>
      <trkpt lat="43.79901" lon="5.37383">
        <ele>588.823547</ele>
        <time>2019-02-19T10:13:08Z</time>
      </trkpt>
      <trkpt lat="43.79903" lon="5.37402">
        <ele>591.102539</ele>
        <time>2019-02-19T10:13:25Z</time>
      </trkpt>
      <trkpt lat="43.79907" lon="5.37421">
        <ele>593.179016</ele>
        <time>2019-02-19T10:13:45Z</time>
      </trkpt>
      <trkpt lat="43.79915" lon="5.37406">
        <ele>590.226807</ele>
        <time>2019-02-19T10:14:20Z</time>
      </trkpt>
      <trkpt lat="43.79913" lon="5.37386">
        <ele>588.590271</ele>
        <time>2019-02-19T10:14:37Z</time>
      </trkpt>
      <trkpt lat="43.79918" lon="5.37366">
        <ele>587.282776</ele>
        <time>2019-02-19T10:14:53Z</time>
      </trkpt>
      <trkpt lat="43.79925" lon="5.3735">
        <ele>587.897888</ele>
        <time>2019-02-19T10:15:10Z</time>
      </trkpt>
      <trkpt lat="43.79932" lon="5.37332">
        <ele>588.204834</ele>
        <time>2019-02-19T10:15:29Z</time>
      </trkpt>
      <trkpt lat="43.7994" lon="5.37315">
        <ele>591.329102</ele>
        <time>2019-02-19T10:15:45Z</time>
      </trkpt>
      <trkpt lat="43.7995" lon="5.37301">
        <ele>594.349487</ele>
        <time>2019-02-19T10:16:00Z</time>
      </trkpt>
      <trkpt lat="43.79962" lon="5.3729">
        <ele>597.991699</ele>
        <time>2019-02-19T10:16:16Z</time>
      </trkpt>
      <trkpt lat="43.79977" lon="5.37285">
        <ele>602.128479</ele>
        <time>2019-02-19T10:16:32Z</time>
      </trkpt>
      <trkpt lat="43.79997" lon="5.37284">
        <ele>607.427551</ele>
        <time>2019-02-19T10:16:48Z</time>
      </trkpt>
      <trkpt lat="43.80011" lon="5.37286">
        <ele>610.588562</ele>
        <time>2019-02-19T10:17:27Z</time>
      </trkpt>
      <trkpt lat="43.80024" lon="5.37291">
        <ele>613.645996</ele>
        <time>2019-02-19T10:17:44Z</time>
      </trkpt>
      <trkpt lat="43.80039" lon="5.37289">
        <ele>617.273376</ele>
        <time>2019-02-19T10:18:00Z</time>
      </trkpt>
      <trkpt lat="43.80052" lon="5.37295">
        <ele>620.117432</ele>
        <time>2019-02-19T10:18:25Z</time>
      </trkpt>
      <trkpt lat="43.80066" lon="5.373">
        <ele>623.089783</ele>
        <time>2019-02-19T10:18:47Z</time>
      </trkpt>
      <trkpt lat="43.80077" lon="5.37311">
        <ele>625.393433</ele>
        <time>2019-02-19T10:19:37Z</time>
      </trkpt>
      <trkpt lat="43.80103" lon="5.37297">
        <ele>633.613281</ele>
        <time>2019-02-19T10:19:53Z</time>
      </trkpt>
      <trkpt lat="43.80097" lon="5.37317">
        <ele>630.927124</ele>
        <time>2019-02-19T10:20:09Z</time>
      </trkpt>
      <trkpt lat="43.80108" lon="5.3733">
        <ele>633.930969</ele>
        <time>2019-02-19T10:20:47Z</time>
      </trkpt>
      <trkpt lat="43.80121" lon="5.37336">
        <ele>638.203979</ele>
        <time>2019-02-19T10:21:17Z</time>
      </trkpt>
      <trkpt lat="43.80135" lon="5.37336">
        <ele>642.734192</ele>
        <time>2019-02-19T10:22:10Z</time>
      </trkpt>
      <trkpt lat="43.80148" lon="5.37331">
        <ele>646.439209</ele>
        <time>2019-02-19T10:22:54Z</time>
      </trkpt>
      <trkpt lat="43.80152" lon="5.3735">
        <ele>650.572571</ele>
        <time>2019-02-19T10:23:16Z</time>
      </trkpt>
      <trkpt lat="43.80164" lon="5.37359">
        <ele>656.085632</ele>
        <time>2019-02-19T10:24:19Z</time>
      </trkpt>
      <trkpt lat="43.80178" lon="5.37361">
        <ele>660.646301</ele>
        <time>2019-02-19T10:25:03Z</time>
      </trkpt>
      <trkpt lat="43.80185" lon="5.37377">
        <ele>665.455261</ele>
        <time>2019-02-19T10:25:38Z</time>
      </trkpt>
      <trkpt lat="43.80199" lon="5.37377">
        <ele>669.505859</ele>
        <time>2019-02-19T10:26:16Z</time>
      </trkpt>
      <trkpt lat="43.80212" lon="5.37383">
        <ele>673.996338</ele>
        <time>2019-02-19T10:27:01Z</time>
      </trkpt>
      <trkpt lat="43.80225" lon="5.3738">
        <ele>677.426025</ele>
        <time>2019-02-19T10:27:27Z</time>
      </trkpt>
      <trkpt lat="43.80239" lon="5.37385">
        <ele>681.599854</ele>
        <time>2019-02-19T10:28:08Z</time>
      </trkpt>
      <trkpt lat="43.80252" lon="5.37382">
        <ele>684.644958</ele>
        <time>2019-02-19T10:28:35Z</time>
      </trkpt>
      <trkpt lat="43.80266" lon="5.37381">
        <ele>685.210083</ele>
        <time>2019-02-19T10:28:59Z</time>
      </trkpt>
      <trkpt lat="43.80279" lon="5.37373">
        <ele>685.219177</ele>
        <time>2019-02-19T10:29:15Z</time>
      </trkpt>
      <trkpt lat="43.8029" lon="5.37362">
        <ele>684.830017</ele>
        <time>2019-02-19T10:29:37Z</time>
      </trkpt>
      <trkpt lat="43.80302" lon="5.37371">
        <ele>686.158386</ele>
        <time>2019-02-19T10:30:05Z</time>
      </trkpt>
      <trkpt lat="43.80318" lon="5.37382">
        <ele>687.95874</ele>
        <time>2019-02-19T10:30:21Z</time>
      </trkpt>
      <trkpt lat="43.80335" lon="5.37382">
        <ele>688.690796</ele>
        <time>2019-02-19T10:30:36Z</time>
      </trkpt>
      <trkpt lat="43.8035" lon="5.37389">
        <ele>689.6521</ele>
        <time>2019-02-19T10:30:52Z</time>
      </trkpt>
      <trkpt lat="43.80367" lon="5.37396">
        <ele>690.43689</ele>
        <time>2019-02-19T10:31:08Z</time>
      </trkpt>
      <trkpt lat="43.80391" lon="5.37405">
        <ele>690.955261</ele>
        <time>2019-02-19T10:31:24Z</time>
      </trkpt>
      <trkpt lat="43.80407" lon="5.37412">
        <ele>691.058167</ele>
        <time>2019-02-19T10:31:39Z</time>
      </trkpt>
      <trkpt lat="43.80424" lon="5.37419">
        <ele>692.346985</ele>
        <time>2019-02-19T10:31:55Z</time>
      </trkpt>
      <trkpt lat="43.80438" lon="5.37426">
        <ele>694.789062</ele>
        <time>2019-02-19T10:32:10Z</time>
      </trkpt>
      <trkpt lat="43.80455" lon="5.37432">
        <ele>697.454773</ele>
        <time>2019-02-19T10:32:26Z</time>
      </trkpt>
      <trkpt lat="43.8047" lon="5.37436">
        <ele>699.60437</ele>
        <time>2019-02-19T10:32:41Z</time>
      </trkpt>
      <trkpt lat="43.80484" lon="5.37438">
        <ele>701.524719</ele>
        <time>2019-02-19T10:33:03Z</time>
      </trkpt>
      <trkpt lat="43.80498" lon="5.37441">
        <ele>703.276062</ele>
        <time>2019-02-19T10:33:27Z</time>
      </trkpt>
      <trkpt lat="43.80512" lon="5.37443">
        <ele>705.694214</ele>
        <time>2019-02-19T10:33:45Z</time>
      </trkpt>
      <trkpt lat="43.80524" lon="5.37451">
        <ele>707.883301</ele>
        <time>2019-02-19T10:34:06Z</time>
      </trkpt>
      <trkpt lat="43.80537" lon="5.37459">
        <ele>709.935486</ele>
        <time>2019-02-19T10:34:37Z</time>
      </trkpt>
      <trkpt lat="43.80549" lon="5.37465">
        <ele>711.926941</ele>
        <time>2019-02-19T10:35:00Z</time>
      </trkpt>
      <trkpt lat="43.80563" lon="5.37466">
        <ele>714.044067</ele>
        <time>2019-02-19T10:35:20Z</time>
      </trkpt>
      <trkpt lat="43.80576" lon="5.3747">
        <ele>715.991943</ele>
        <time>2019-02-19T10:35:43Z</time>
      </trkpt>
      <trkpt lat="43.8059" lon="5.37471">
        <ele>716.600464</ele>
        <time>2019-02-19T10:36:05Z</time>
      </trkpt>
      <trkpt lat="43.80602" lon="5.37479">
        <ele>715.264404</ele>
        <time>2019-02-19T10:37:19Z</time>
      </trkpt>
      <trkpt lat="43.80616" lon="5.37472">
        <ele>714.703918</ele>
        <time>2019-02-19T10:37:40Z</time>
      </trkpt>
      <trkpt lat="43.80633" lon="5.3748">
        <ele>712.660706</ele>
        <time>2019-02-19T10:37:55Z</time>
      </trkpt>
      <trkpt lat="43.80646" lon="5.37488">
        <ele>710.66687</ele>
        <time>2019-02-19T10:38:20Z</time>
      </trkpt>
      <trkpt lat="43.80658" lon="5.37498">
        <ele>708.197754</ele>
        <time>2019-02-19T10:38:35Z</time>
      </trkpt>
      <trkpt lat="43.80672" lon="5.375">
        <ele>705.93219</ele>
        <time>2019-02-19T10:38:54Z</time>
      </trkpt>
      <trkpt lat="43.80683" lon="5.37514">
        <ele>704.024292</ele>
        <time>2019-02-19T10:39:09Z</time>
      </trkpt>
      <trkpt lat="43.80696" lon="5.37523">
        <ele>701.384827</ele>
        <time>2019-02-19T10:39:29Z</time>
      </trkpt>
      <trkpt lat="43.80706" lon="5.37537">
        <ele>699.127808</ele>
        <time>2019-02-19T10:39:45Z</time>
      </trkpt>
      <trkpt lat="43.80716" lon="5.37551">
        <ele>696.36969</ele>
        <time>2019-02-19T10:40:01Z</time>
      </trkpt>
      <trkpt lat="43.80729" lon="5.37561">
        <ele>692.810974</ele>
        <time>2019-02-19T10:40:17Z</time>
      </trkpt>
      <trkpt lat="43.80741" lon="5.37573">
        <ele>689.011841</ele>
        <time>2019-02-19T10:40:32Z</time>
      </trkpt>
      <trkpt lat="43.80754" lon="5.37588">
        <ele>685.503052</ele>
        <time>2019-02-19T10:40:48Z</time>
      </trkpt>
      <trkpt lat="43.80767" lon="5.37593">
        <ele>682.433105</ele>
        <time>2019-02-19T10:41:07Z</time>
      </trkpt>
      <trkpt lat="43.80779" lon="5.37604">
        <ele>679.616211</ele>
        <time>2019-02-19T10:41:27Z</time>
      </trkpt>
      <trkpt lat="43.80792" lon="5.37612">
        <ele>675.862671</ele>
        <time>2019-02-19T10:41:42Z</time>
      </trkpt>
      <trkpt lat="43.80805" lon="5.3762">
        <ele>671.599121</ele>
        <time>2019-02-19T10:42:00Z</time>
      </trkpt>
      <trkpt lat="43.8082" lon="5.37622">
        <ele>666.707947</ele>
        <time>2019-02-19T10:42:16Z</time>
      </trkpt>
      <trkpt lat="43.80832" lon="5.37632">
        <ele>661.949158</ele>
        <time>2019-02-19T10:42:34Z</time>
      </trkpt>
      <trkpt lat="43.80846" lon="5.3763">
        <ele>659.380493</ele>
        <time>2019-02-19T10:42:50Z</time>
      </trkpt>
      <trkpt lat="43.80861" lon="5.37635">
        <ele>656.292419</ele>
        <time>2019-02-19T10:43:31Z</time>
      </trkpt>
      <trkpt lat="43.80887" lon="5.37645">
        <ele>650.884399</ele>
        <time>2019-02-19T10:43:47Z</time>
      </trkpt>
      <trkpt lat="43.80898" lon="5.37657">
        <ele>647.980347</ele>
        <time>2019-02-19T10:44:10Z</time>
      </trkpt>
      <trkpt lat="43.8092" lon="5.37651">
        <ele>644.766479</ele>
        <time>2019-02-19T10:44:26Z</time>
      </trkpt>
      <trkpt lat="43.80934" lon="5.37648">
        <ele>643.127197</ele>
        <time>2019-02-19T10:44:41Z</time>
      </trkpt>
      <trkpt lat="43.80949" lon="5.37647">
        <ele>641.383179</ele>
        <time>2019-02-19T10:44:59Z</time>
      </trkpt>
      <trkpt lat="43.80969" lon="5.37635">
        <ele>639.797668</ele>
        <time>2019-02-19T10:45:15Z</time>
      </trkpt>
      <trkpt lat="43.80983" lon="5.37628">
        <ele>638.812683</ele>
        <time>2019-02-19T10:45:35Z</time>
      </trkpt>
      <trkpt lat="43.80999" lon="5.37619">
        <ele>637.707092</ele>
        <time>2019-02-19T10:45:50Z</time>
      </trkpt>
      <trkpt lat="43.81018" lon="5.37626">
        <ele>634.507324</ele>
        <time>2019-02-19T10:46:05Z</time>
      </trkpt>
      <trkpt lat="43.81029" lon="5.37641">
        <ele>631.641602</ele>
        <time>2019-02-19T10:46:21Z</time>
      </trkpt>
      <trkpt lat="43.81038" lon="5.37659">
        <ele>629.104614</ele>
        <time>2019-02-19T10:46:37Z</time>
      </trkpt>
      <trkpt lat="43.8105" lon="5.37669">
        <ele>626.51416</ele>
        <time>2019-02-19T10:46:52Z</time>
      </trkpt>
      <trkpt lat="43.8106" lon="5.37682">
        <ele>622.670715</ele>
        <time>2019-02-19T10:47:07Z</time>
      </trkpt>
      <trkpt lat="43.81075" lon="5.37686">
        <ele>620.433655</ele>
        <time>2019-02-19T10:47:22Z</time>
      </trkpt>
      <trkpt lat="43.81089" lon="5.37698">
        <ele>616.588135</ele>
        <time>2019-02-19T10:47:38Z</time>
      </trkpt>
      <trkpt lat="43.81102" lon="5.37696">
        <ele>615.106262</ele>
        <time>2019-02-19T10:47:54Z</time>
      </trkpt>
      <trkpt lat="43.81116" lon="5.37689">
        <ele>614.319275</ele>
        <time>2019-02-19T10:48:09Z</time>
      </trkpt>
      <trkpt lat="43.81129" lon="5.3768">
        <ele>613.804199</ele>
        <time>2019-02-19T10:49:49Z</time>
      </trkpt>
      <trkpt lat="43.81143" lon="5.37684">
        <ele>611.096863</ele>
        <time>2019-02-19T10:50:04Z</time>
      </trkpt>
      <trkpt lat="43.81156" lon="5.37669">
        <ele>611.289551</ele>
        <time>2019-02-19T10:50:19Z</time>
      </trkpt>
      <trkpt lat="43.8117" lon="5.3767">
        <ele>608.934875</ele>
        <time>2019-02-19T10:50:38Z</time>
      </trkpt>
      <trkpt lat="43.81191" lon="5.3765">
        <ele>606.375549</ele>
        <time>2019-02-19T10:50:53Z</time>
      </trkpt>
      <trkpt lat="43.81202" lon="5.3763">
        <ele>605.075684</ele>
        <time>2019-02-19T10:51:09Z</time>
      </trkpt>
      <trkpt lat="43.81219" lon="5.37629">
        <ele>601.912781</ele>
        <time>2019-02-19T10:51:24Z</time>
      </trkpt>
      <trkpt lat="43.81229" lon="5.37615">
        <ele>600.430481</ele>
        <time>2019-02-19T10:51:52Z</time>
      </trkpt>
      <trkpt lat="43.81235" lon="5.37595">
        <ele>599.741821</ele>
        <time>2019-02-19T10:52:07Z</time>
      </trkpt>
      <trkpt lat="43.81239" lon="5.3757">
        <ele>600.809998</ele>
        <time>2019-02-19T10:52:23Z</time>
      </trkpt>
      <trkpt lat="43.81243" lon="5.37541">
        <ele>603.340637</ele>
        <time>2019-02-19T10:52:38Z</time>
      </trkpt>
      <trkpt lat="43.81257" lon="5.37524">
        <ele>602.50061</ele>
        <time>2019-02-19T10:52:53Z</time>
      </trkpt>
      <trkpt lat="43.81275" lon="5.37531">
        <ele>597.483215</ele>
        <time>2019-02-19T10:53:08Z</time>
      </trkpt>
      <trkpt lat="43.81294" lon="5.37534">
        <ele>592.837463</ele>
        <time>2019-02-19T10:53:24Z</time>
      </trkpt>
      <trkpt lat="43.81314" lon="5.37526">
        <ele>589.368774</ele>
        <time>2019-02-19T10:53:39Z</time>
      </trkpt>
      <trkpt lat="43.81329" lon="5.37509">
        <ele>588.616089</ele>
        <time>2019-02-19T10:53:54Z</time>
      </trkpt>
      <trkpt lat="43.81341" lon="5.37489">
        <ele>587.226501</ele>
        <time>2019-02-19T10:54:10Z</time>
      </trkpt>
      <trkpt lat="43.81355" lon="5.37479">
        <ele>584.079468</ele>
        <time>2019-02-19T10:54:25Z</time>
      </trkpt>
      <trkpt lat="43.81365" lon="5.37455">
        <ele>582.038025</ele>
        <time>2019-02-19T10:54:41Z</time>
      </trkpt>
      <trkpt lat="43.81359" lon="5.37423">
        <ele>584.435181</ele>
        <time>2019-02-19T10:54:57Z</time>
      </trkpt>
      <trkpt lat="43.81356" lon="5.374">
        <ele>582.566162</ele>
        <time>2019-02-19T10:55:13Z</time>
      </trkpt>
      <trkpt lat="43.81353" lon="5.37377">
        <ele>579.983276</ele>
        <time>2019-02-19T10:55:29Z</time>
      </trkpt>
      <trkpt lat="43.81349" lon="5.37353">
        <ele>577.28363</ele>
        <time>2019-02-19T10:55:45Z</time>
      </trkpt>
      <trkpt lat="43.81346" lon="5.37328">
        <ele>574.123901</ele>
        <time>2019-02-19T10:56:00Z</time>
      </trkpt>
      <trkpt lat="43.81339" lon="5.37306">
        <ele>572.078735</ele>
        <time>2019-02-19T10:56:15Z</time>
      </trkpt>
      <trkpt lat="43.81329" lon="5.37284">
        <ele>570.842773</ele>
        <time>2019-02-19T10:56:31Z</time>
      </trkpt>
      <trkpt lat="43.81319" lon="5.37264">
        <ele>570.306335</ele>
        <time>2019-02-19T10:56:46Z</time>
      </trkpt>
      <trkpt lat="43.81307" lon="5.37246">
        <ele>571.306152</ele>
        <time>2019-02-19T10:57:01Z</time>
      </trkpt>
      <trkpt lat="43.81295" lon="5.37236">
        <ele>574.862061</ele>
        <time>2019-02-19T10:57:22Z</time>
      </trkpt>
      <trkpt lat="43.81295" lon="5.37215">
        <ele>574.485474</ele>
        <time>2019-02-19T10:57:38Z</time>
      </trkpt>
      <trkpt lat="43.81301" lon="5.37197">
        <ele>572.794739</ele>
        <time>2019-02-19T10:57:53Z</time>
      </trkpt>
      <trkpt lat="43.81313" lon="5.37185">
        <ele>569.490234</ele>
        <time>2019-02-19T10:58:08Z</time>
      </trkpt>
      <trkpt lat="43.81326" lon="5.37176">
        <ele>565.792419</ele>
        <time>2019-02-19T10:58:24Z</time>
      </trkpt>
      <trkpt lat="43.81338" lon="5.37157">
        <ele>562.024841</ele>
        <time>2019-02-19T10:58:39Z</time>
      </trkpt>
      <trkpt lat="43.81343" lon="5.37134">
        <ele>558.859131</ele>
        <time>2019-02-19T10:58:55Z</time>
      </trkpt>
      <trkpt lat="43.81335" lon="5.37116">
        <ele>559.364746</ele>
        <time>2019-02-19T10:59:11Z</time>
      </trkpt>
      <trkpt lat="43.81322" lon="5.37103">
        <ele>560.641235</ele>
        <time>2019-02-19T10:59:26Z</time>
      </trkpt>
      <trkpt lat="43.81302" lon="5.37103">
        <ele>564.105957</ele>
        <time>2019-02-19T10:59:42Z</time>
      </trkpt>
      <trkpt lat="43.81286" lon="5.37093">
        <ele>565.279907</ele>
        <time>2019-02-19T10:59:57Z</time>
      </trkpt>
      <trkpt lat="43.8127" lon="5.37084">
        <ele>566.210571</ele>
        <time>2019-02-19T11:00:13Z</time>
      </trkpt>
      <trkpt lat="43.81254" lon="5.37075">
        <ele>566.24408</ele>
        <time>2019-02-19T11:00:28Z</time>
      </trkpt>
      <trkpt lat="43.81239" lon="5.37061">
        <ele>565.703125</ele>
        <time>2019-02-19T11:00:44Z</time>
      </trkpt>
      <trkpt lat="43.81222" lon="5.37042">
        <ele>565.070984</ele>
        <time>2019-02-19T11:00:59Z</time>
      </trkpt>
      <trkpt lat="43.81207" lon="5.37025">
        <ele>565.062988</ele>
        <time>2019-02-19T11:01:15Z</time>
      </trkpt>
      <trkpt lat="43.81194" lon="5.3701">
        <ele>565.401245</ele>
        <time>2019-02-19T11:01:30Z</time>
      </trkpt>
      <trkpt lat="43.81186" lon="5.3699">
        <ele>565.573364</ele>
        <time>2019-02-19T11:01:46Z</time>
      </trkpt>
      <trkpt lat="43.81198" lon="5.36977">
        <ele>562.539734</ele>
        <time>2019-02-19T11:02:01Z</time>
      </trkpt>
      <trkpt lat="43.81211" lon="5.36969">
        <ele>558.988403</ele>
        <time>2019-02-19T11:02:16Z</time>
      </trkpt>
      <trkpt lat="43.81227" lon="5.36966">
        <ele>554.692749</ele>
        <time>2019-02-19T11:02:32Z</time>
      </trkpt>
      <trkpt lat="43.81244" lon="5.36968">
        <ele>549.971252</ele>
        <time>2019-02-19T11:02:47Z</time>
      </trkpt>
      <trkpt lat="43.81262" lon="5.36973">
        <ele>546.650452</ele>
        <time>2019-02-19T11:03:03Z</time>
      </trkpt>
      <trkpt lat="43.8128" lon="5.36979">
        <ele>544.252686</ele>
        <time>2019-02-19T11:03:18Z</time>
      </trkpt>
      <trkpt lat="43.81299" lon="5.36976">
        <ele>541.658447</ele>
        <time>2019-02-19T11:03:34Z</time>
      </trkpt>
      <trkpt lat="43.81315" lon="5.36967">
        <ele>538.918823</ele>
        <time>2019-02-19T11:03:50Z</time>
      </trkpt>
      <trkpt lat="43.81322" lon="5.36948">
        <ele>536.50769</ele>
        <time>2019-02-19T11:04:05Z</time>
      </trkpt>
      <trkpt lat="43.81335" lon="5.36934">
        <ele>533.173096</ele>
        <time>2019-02-19T11:04:20Z</time>
      </trkpt>
      <trkpt lat="43.81351" lon="5.36922">
        <ele>529.031128</ele>
        <time>2019-02-19T11:04:36Z</time>
      </trkpt>
      <trkpt lat="43.81368" lon="5.36917">
        <ele>524.996643</ele>
        <time>2019-02-19T11:04:51Z</time>
      </trkpt>
      <trkpt lat="43.81387" lon="5.36912">
        <ele>521.361267</ele>
        <time>2019-02-19T11:05:07Z</time>
      </trkpt>
      <trkpt lat="43.81403" lon="5.36907">
        <ele>518.387085</ele>
        <time>2019-02-19T11:05:23Z</time>
      </trkpt>
      <trkpt lat="43.8142" lon="5.36899">
        <ele>515.023804</ele>
        <time>2019-02-19T11:05:38Z</time>
      </trkpt>
      <trkpt lat="43.81435" lon="5.36891">
        <ele>512.03949</ele>
        <time>2019-02-19T11:05:54Z</time>
      </trkpt>
      <trkpt lat="43.81453" lon="5.36884">
        <ele>507.957489</ele>
        <time>2019-02-19T11:06:10Z</time>
      </trkpt>
      <trkpt lat="43.81466" lon="5.36871">
        <ele>504.936005</ele>
        <time>2019-02-19T11:06:25Z</time>
      </trkpt>
      <trkpt lat="43.81477" lon="5.36849">
        <ele>501.806732</ele>
        <time>2019-02-19T11:06:40Z</time>
      </trkpt>
      <trkpt lat="43.81493" lon="5.36833">
        <ele>497.0047</ele>
        <time>2019-02-19T11:06:56Z</time>
      </trkpt>
      <trkpt lat="43.81511" lon="5.3683">
        <ele>495.171295</ele>
        <time>2019-02-19T11:07:11Z</time>
      </trkpt>
      <trkpt lat="43.81508" lon="5.3681">
        <ele>493.722809</ele>
        <time>2019-02-19T11:07:46Z</time>
      </trkpt>
      <trkpt lat="43.81504" lon="5.36784">
        <ele>491.730988</ele>
        <time>2019-02-19T11:08:01Z</time>
      </trkpt>
      <trkpt lat="43.81498" lon="5.36759">
        <ele>490.369385</ele>
        <time>2019-02-19T11:08:16Z</time>
      </trkpt>
      <trkpt lat="43.81487" lon="5.3674">
        <ele>492.808746</ele>
        <time>2019-02-19T11:08:31Z</time>
      </trkpt>
      <trkpt lat="43.81479" lon="5.36716">
        <ele>493.324707</ele>
        <time>2019-02-19T11:08:47Z</time>
      </trkpt>
      <trkpt lat="43.81469" lon="5.3669">
        <ele>493.261475</ele>
        <time>2019-02-19T11:09:03Z</time>
      </trkpt>
      <trkpt lat="43.81457" lon="5.36666">
        <ele>492.65271</ele>
        <time>2019-02-19T11:09:18Z</time>
      </trkpt>
      <trkpt lat="43.81448" lon="5.36652">
        <ele>492.765503</ele>
        <time>2019-02-19T11:09:34Z</time>
      </trkpt>
      <trkpt lat="43.81438" lon="5.3663">
        <ele>491.414703</ele>
        <time>2019-02-19T11:09:49Z</time>
      </trkpt>
      <trkpt lat="43.81428" lon="5.3661">
        <ele>489.244751</ele>
        <time>2019-02-19T11:10:05Z</time>
      </trkpt>
      <trkpt lat="43.81418" lon="5.36592">
        <ele>486.398224</ele>
        <time>2019-02-19T11:10:20Z</time>
      </trkpt>
      <trkpt lat="43.81405" lon="5.36573">
        <ele>486.164185</ele>
        <time>2019-02-19T11:10:36Z</time>
      </trkpt>
      <trkpt lat="43.81395" lon="5.36561">
        <ele>486.763489</ele>
        <time>2019-02-19T11:10:51Z</time>
      </trkpt>
      <trkpt lat="43.81384" lon="5.36544">
        <ele>486.949097</ele>
        <time>2019-02-19T11:11:06Z</time>
      </trkpt>
      <trkpt lat="43.81372" lon="5.36517">
        <ele>486.062256</ele>
        <time>2019-02-19T11:11:22Z</time>
      </trkpt>
      <trkpt lat="43.8136" lon="5.36493">
        <ele>484.77298</ele>
        <time>2019-02-19T11:11:38Z</time>
      </trkpt>
      <trkpt lat="43.81345" lon="5.36475">
        <ele>483.58667</ele>
        <time>2019-02-19T11:11:53Z</time>
      </trkpt>
      <trkpt lat="43.81327" lon="5.36469">
        <ele>484.220734</ele>
        <time>2019-02-19T11:12:09Z</time>
      </trkpt>
      <trkpt lat="43.81316" lon="5.36453">
        <ele>483.675507</ele>
        <time>2019-02-19T11:12:24Z</time>
      </trkpt>
      <trkpt lat="43.81302" lon="5.36434">
        <ele>482.744995</ele>
        <time>2019-02-19T11:12:39Z</time>
      </trkpt>
      <trkpt lat="43.81289" lon="5.36416">
        <ele>481.207764</ele>
        <time>2019-02-19T11:12:54Z</time>
      </trkpt>
      <trkpt lat="43.81277" lon="5.36398">
        <ele>480.391174</ele>
        <time>2019-02-19T11:13:10Z</time>
      </trkpt>
      <trkpt lat="43.81263" lon="5.36376">
        <ele>478.335724</ele>
        <time>2019-02-19T11:13:25Z</time>
      </trkpt>
      <trkpt lat="43.81251" lon="5.36359">
        <ele>476.000763</ele>
        <time>2019-02-19T11:13:40Z</time>
      </trkpt>
      <trkpt lat="43.81238" lon="5.36334">
        <ele>474.029236</ele>
        <time>2019-02-19T11:13:56Z</time>
      </trkpt>
      <trkpt lat="43.81228" lon="5.3632">
        <ele>474.033386</ele>
        <time>2019-02-19T11:14:12Z</time>
      </trkpt>
      <trkpt lat="43.81217" lon="5.36302">
        <ele>473.64624</ele>
        <time>2019-02-19T11:14:28Z</time>
      </trkpt>
      <trkpt lat="43.81206" lon="5.36283">
        <ele>472.978668</ele>
        <time>2019-02-19T11:14:43Z</time>
      </trkpt>
      <trkpt lat="43.81196" lon="5.36262">
        <ele>471.909668</ele>
        <time>2019-02-19T11:14:58Z</time>
      </trkpt>
      <trkpt lat="43.81189" lon="5.36234">
        <ele>470.322144</ele>
        <time>2019-02-19T11:15:14Z</time>
      </trkpt>
      <trkpt lat="43.81185" lon="5.36208">
        <ele>468.600983</ele>
        <time>2019-02-19T11:15:30Z</time>
      </trkpt>
      <trkpt lat="43.81182" lon="5.36185">
        <ele>466.646667</ele>
        <time>2019-02-19T11:15:45Z</time>
      </trkpt>
      <trkpt lat="43.81175" lon="5.36166">
        <ele>464.915436</ele>
        <time>2019-02-19T11:16:00Z</time>
      </trkpt>
      <trkpt lat="43.81169" lon="5.3614">
        <ele>462.674805</ele>
        <time>2019-02-19T11:16:16Z</time>
      </trkpt>
      <trkpt lat="43.81163" lon="5.36116">
        <ele>460.731567</ele>
        <time>2019-02-19T11:16:31Z</time>
      </trkpt>
      <trkpt lat="43.81156" lon="5.36089">
        <ele>458.964722</ele>
        <time>2019-02-19T11:16:47Z</time>
      </trkpt>
      <trkpt lat="43.81146" lon="5.36068">
        <ele>458.813934</ele>
        <time>2019-02-19T11:17:02Z</time>
      </trkpt>
      <trkpt lat="43.81132" lon="5.36043">
        <ele>458.164093</ele>
        <time>2019-02-19T11:17:18Z</time>
      </trkpt>
      <trkpt lat="43.81119" lon="5.36025">
        <ele>456.723877</ele>
        <time>2019-02-19T11:17:33Z</time>
      </trkpt>
      <trkpt lat="43.81107" lon="5.36009">
        <ele>454.5672</ele>
        <time>2019-02-19T11:17:48Z</time>
      </trkpt>
      <trkpt lat="43.81097" lon="5.35988">
        <ele>452.532166</ele>
        <time>2019-02-19T11:18:04Z</time>
      </trkpt>
      <trkpt lat="43.81083" lon="5.35969">
        <ele>450.511749</ele>
        <time>2019-02-19T11:18:20Z</time>
      </trkpt>
      <trkpt lat="43.8107" lon="5.35954">
        <ele>449.798279</ele>
        <time>2019-02-19T11:18:35Z</time>
      </trkpt>
      <trkpt lat="43.81055" lon="5.35938">
        <ele>448.624146</ele>
        <time>2019-02-19T11:18:50Z</time>
      </trkpt>
      <trkpt lat="43.81037" lon="5.35929">
        <ele>447.454041</ele>
        <time>2019-02-19T11:19:05Z</time>
      </trkpt>
      <trkpt lat="43.81019" lon="5.35917">
        <ele>445.778564</ele>
        <time>2019-02-19T11:19:21Z</time>
      </trkpt>
      <trkpt lat="43.81004" lon="5.35898">
        <ele>446.431885</ele>
        <time>2019-02-19T11:19:36Z</time>
      </trkpt>
      <trkpt lat="43.80986" lon="5.35885">
        <ele>447.086304</ele>
        <time>2019-02-19T11:19:52Z</time>
      </trkpt>
      <trkpt lat="43.80973" lon="5.35869">
        <ele>447.109375</ele>
        <time>2019-02-19T11:20:07Z</time>
      </trkpt>
      <trkpt lat="43.80955" lon="5.35853">
        <ele>445.671539</ele>
        <time>2019-02-19T11:20:23Z</time>
      </trkpt>
      <trkpt lat="43.80941" lon="5.35837">
        <ele>443.273376</ele>
        <time>2019-02-19T11:20:38Z</time>
      </trkpt>
      <trkpt lat="43.80927" lon="5.35819">
        <ele>441.328857</ele>
        <time>2019-02-19T11:20:53Z</time>
      </trkpt>
      <trkpt lat="43.80913" lon="5.358">
        <ele>439.942139</ele>
        <time>2019-02-19T11:21:08Z</time>
      </trkpt>
      <trkpt lat="43.809" lon="5.3578">
        <ele>441.799469</ele>
        <time>2019-02-19T11:21:23Z</time>
      </trkpt>
      <trkpt lat="43.80891" lon="5.3576">
        <ele>442.180054</ele>
        <time>2019-02-19T11:21:39Z</time>
      </trkpt>
      <trkpt lat="43.80884" lon="5.35735">
        <ele>441.607086</ele>
        <time>2019-02-19T11:21:54Z</time>
      </trkpt>
      <trkpt lat="43.80879" lon="5.35708">
        <ele>440.58728</ele>
        <time>2019-02-19T11:22:10Z</time>
      </trkpt>
      <trkpt lat="43.80871" lon="5.35684">
        <ele>439.097046</ele>
        <time>2019-02-19T11:22:26Z</time>
      </trkpt>
      <trkpt lat="43.80863" lon="5.35658">
        <ele>437.25354</ele>
        <time>2019-02-19T11:22:42Z</time>
      </trkpt>
      <trkpt lat="43.80861" lon="5.35631">
        <ele>436.459229</ele>
        <time>2019-02-19T11:22:57Z</time>
      </trkpt>
      <trkpt lat="43.80862" lon="5.35604">
        <ele>435.897217</ele>
        <time>2019-02-19T11:23:12Z</time>
      </trkpt>
      <trkpt lat="43.80861" lon="5.35578">
        <ele>435.315399</ele>
        <time>2019-02-19T11:23:27Z</time>
      </trkpt>
      <trkpt lat="43.80857" lon="5.3555">
        <ele>434.606049</ele>
        <time>2019-02-19T11:23:43Z</time>
      </trkpt>
      <trkpt lat="43.80854" lon="5.35526">
        <ele>434.007782</ele>
        <time>2019-02-19T11:23:58Z</time>
      </trkpt>
      <trkpt lat="43.80851" lon="5.355">
        <ele>433.349243</ele>
        <time>2019-02-19T11:24:13Z</time>
      </trkpt>
      <trkpt lat="43.80851" lon="5.35474">
        <ele>433.19519</ele>
        <time>2019-02-19T11:24:28Z</time>
      </trkpt>
      <trkpt lat="43.80851" lon="5.3545">
        <ele>433.070618</ele>
        <time>2019-02-19T11:24:44Z</time>
      </trkpt>
      <trkpt lat="43.8085" lon="5.35425">
        <ele>432.879425</ele>
        <time>2019-02-19T11:24:59Z</time>
      </trkpt>
      <trkpt lat="43.80849" lon="5.35398">
        <ele>432.061005</ele>
        <time>2019-02-19T11:25:15Z</time>
      </trkpt>
      <trkpt lat="43.80847" lon="5.35377">
        <ele>431.1427</ele>
        <time>2019-02-19T11:25:30Z</time>
      </trkpt>
      <trkpt lat="43.8085" lon="5.35349">
        <ele>430.487671</ele>
        <time>2019-02-19T11:25:46Z</time>
      </trkpt>
      <trkpt lat="43.80851" lon="5.35321">
        <ele>428.83905</ele>
        <time>2019-02-19T11:26:01Z</time>
      </trkpt>
      <trkpt lat="43.80849" lon="5.35294">
        <ele>425.658722</ele>
        <time>2019-02-19T11:26:17Z</time>
      </trkpt>
      <trkpt lat="43.80849" lon="5.35272">
        <ele>423.250305</ele>
        <time>2019-02-19T11:26:33Z</time>
      </trkpt>
      <trkpt lat="43.8085" lon="5.35244">
        <ele>420.562805</ele>
        <time>2019-02-19T11:26:48Z</time>
      </trkpt>
      <trkpt lat="43.80855" lon="5.35215">
        <ele>418.847015</ele>
        <time>2019-02-19T11:27:04Z</time>
      </trkpt>
      <trkpt lat="43.80854" lon="5.35186">
        <ele>416.527069</ele>
        <time>2019-02-19T11:27:20Z</time>
      </trkpt>
      <trkpt lat="43.80855" lon="5.35163">
        <ele>414.912506</ele>
        <time>2019-02-19T11:27:35Z</time>
      </trkpt>
      <trkpt lat="43.8086" lon="5.35136">
        <ele>413.896912</ele>
        <time>2019-02-19T11:27:50Z</time>
      </trkpt>
      <trkpt lat="43.80865" lon="5.35112">
        <ele>412.276306</ele>
        <time>2019-02-19T11:28:05Z</time>
      </trkpt>
      <trkpt lat="43.80873" lon="5.35091">
        <ele>409.54541</ele>
        <time>2019-02-19T11:28:21Z</time>
      </trkpt>
      <trkpt lat="43.8088" lon="5.35068">
        <ele>406.2052</ele>
        <time>2019-02-19T11:28:37Z</time>
      </trkpt>
      <trkpt lat="43.8089" lon="5.35046">
        <ele>402.138519</ele>
        <time>2019-02-19T11:28:52Z</time>
      </trkpt>
      <trkpt lat="43.809" lon="5.35023">
        <ele>397.850586</ele>
        <time>2019-02-19T11:29:08Z</time>
      </trkpt>
      <trkpt lat="43.80903" lon="5.34999">
        <ele>395.065063</ele>
        <time>2019-02-19T11:29:24Z</time>
      </trkpt>
      <trkpt lat="43.80906" lon="5.34976">
        <ele>392.121552</ele>
        <time>2019-02-19T11:29:39Z</time>
      </trkpt>
      <trkpt lat="43.80909" lon="5.34952">
        <ele>389.197449</ele>
        <time>2019-02-19T11:29:55Z</time>
      </trkpt>
      <trkpt lat="43.80907" lon="5.34931">
        <ele>387.223022</ele>
        <time>2019-02-19T11:30:10Z</time>
      </trkpt>
      <trkpt lat="43.80903" lon="5.34908">
        <ele>385.993011</ele>
        <time>2019-02-19T11:30:25Z</time>
      </trkpt>
      <trkpt lat="43.80894" lon="5.34886">
        <ele>385.192657</ele>
        <time>2019-02-19T11:30:41Z</time>
      </trkpt>
      <trkpt lat="43.80876" lon="5.34865">
        <ele>381.799072</ele>
        <time>2019-02-19T11:30:57Z</time>
      </trkpt>
      <trkpt lat="43.8086" lon="5.34856">
        <ele>378.04187</ele>
        <time>2019-02-19T11:31:12Z</time>
      </trkpt>
      <trkpt lat="43.80847" lon="5.3485">
        <ele>374.618347</ele>
        <time>2019-02-19T11:31:27Z</time>
      </trkpt>
      <trkpt lat="43.80827" lon="5.34858">
        <ele>374.710754</ele>
        <time>2019-02-19T11:31:43Z</time>
      </trkpt>
      <trkpt lat="43.80814" lon="5.34848">
        <ele>372.446716</ele>
        <time>2019-02-19T11:33:15Z</time>
      </trkpt>
      <trkpt lat="43.808" lon="5.34848">
        <ele>373.1521</ele>
        <time>2019-02-19T11:33:32Z</time>
      </trkpt>
      <trkpt lat="43.80783" lon="5.34842">
        <ele>371.373596</ele>
        <time>2019-02-19T11:33:47Z</time>
      </trkpt>
      <trkpt lat="43.80762" lon="5.34848">
        <ele>374.774109</ele>
        <time>2019-02-19T11:34:03Z</time>
      </trkpt>
      <trkpt lat="43.80741" lon="5.34835">
        <ele>372.907898</ele>
        <time>2019-02-19T11:34:19Z</time>
      </trkpt>
      <trkpt lat="43.80729" lon="5.34822">
        <ele>372.961639</ele>
        <time>2019-02-19T11:34:34Z</time>
      </trkpt>
      <trkpt lat="43.80715" lon="5.34803">
        <ele>372.350098</ele>
        <time>2019-02-19T11:34:49Z</time>
      </trkpt>
      <trkpt lat="43.80707" lon="5.34777">
        <ele>367.615753</ele>
        <time>2019-02-19T11:35:05Z</time>
      </trkpt>
      <trkpt lat="43.80701" lon="5.34751">
        <ele>361.901733</ele>
        <time>2019-02-19T11:35:21Z</time>
      </trkpt>
      <trkpt lat="43.80698" lon="5.34724">
        <ele>354.422455</ele>
        <time>2019-02-19T11:35:37Z</time>
      </trkpt>
      <trkpt lat="43.80686" lon="5.34703">
        <ele>350.718994</ele>
        <time>2019-02-19T11:35:52Z</time>
      </trkpt>
      <trkpt lat="43.8067" lon="5.3469">
        <ele>348.924652</ele>
        <time>2019-02-19T11:36:07Z</time>
      </trkpt>
      <trkpt lat="43.8065" lon="5.34678">
        <ele>345.816803</ele>
        <time>2019-02-19T11:36:23Z</time>
      </trkpt>
      <trkpt lat="43.80633" lon="5.34665">
        <ele>342.647461</ele>
        <time>2019-02-19T11:36:38Z</time>
      </trkpt>
      <trkpt lat="43.80616" lon="5.34647">
        <ele>337.685059</ele>
        <time>2019-02-19T11:36:54Z</time>
      </trkpt>
      <trkpt lat="43.80601" lon="5.34632">
        <ele>333.443878</ele>
        <time>2019-02-19T11:37:09Z</time>
      </trkpt>
      <trkpt lat="43.80583" lon="5.34631">
        <ele>334.85321</ele>
        <time>2019-02-19T11:37:24Z</time>
      </trkpt>
      <trkpt lat="43.80567" lon="5.3462">
        <ele>328.431488</ele>
        <time>2019-02-19T11:37:39Z</time>
      </trkpt>
      <trkpt lat="43.80551" lon="5.34623">
        <ele>327.343231</ele>
        <time>2019-02-19T11:37:55Z</time>
      </trkpt>
      <trkpt lat="43.80539" lon="5.34655">
        <ele>334.978394</ele>
        <time>2019-02-19T11:38:10Z</time>
      </trkpt>
      <trkpt lat="43.80537" lon="5.34676">
        <ele>340.15094</ele>
        <time>2019-02-19T11:38:25Z</time>
      </trkpt>
      <trkpt lat="43.80534" lon="5.347">
        <ele>344.858826</ele>
        <time>2019-02-19T11:38:41Z</time>
      </trkpt>
      <trkpt lat="43.80528" lon="5.34726">
        <ele>349.117554</ele>
        <time>2019-02-19T11:38:56Z</time>
      </trkpt>
      <trkpt lat="43.80518" lon="5.3475">
        <ele>351.710205</ele>
        <time>2019-02-19T11:39:12Z</time>
      </trkpt>
      <trkpt lat="43.80508" lon="5.34766">
        <ele>352.560089</ele>
        <time>2019-02-19T11:39:27Z</time>
      </trkpt>
      <trkpt lat="43.80497" lon="5.3474">
        <ele>345.897644</ele>
        <time>2019-02-19T11:39:42Z</time>
      </trkpt>
      <trkpt lat="43.80495" lon="5.34716">
        <ele>341.73291</ele>
        <time>2019-02-19T11:39:57Z</time>
      </trkpt>
      <trkpt lat="43.80491" lon="5.3469">
        <ele>337.289459</ele>
        <time>2019-02-19T11:40:14Z</time>
      </trkpt>
      <trkpt lat="43.80482" lon="5.34671">
        <ele>335.699402</ele>
        <time>2019-02-19T11:40:30Z</time>
      </trkpt>
      <trkpt lat="43.8047" lon="5.34654">
        <ele>334.542969</ele>
        <time>2019-02-19T11:40:46Z</time>
      </trkpt>
      <trkpt lat="43.80455" lon="5.3464">
        <ele>334.612</ele>
        <time>2019-02-19T11:41:01Z</time>
      </trkpt>
      <trkpt lat="43.8044" lon="5.34624">
        <ele>333.163879</ele>
        <time>2019-02-19T11:41:16Z</time>
      </trkpt>
      <trkpt lat="43.80428" lon="5.34599">
        <ele>328.042908</ele>
        <time>2019-02-19T11:41:32Z</time>
      </trkpt>
      <trkpt lat="43.80425" lon="5.34572">
        <ele>320.499756</ele>
        <time>2019-02-19T11:41:48Z</time>
      </trkpt>
      <trkpt lat="43.80423" lon="5.34543">
        <ele>312.991058</ele>
        <time>2019-02-19T11:42:03Z</time>
      </trkpt>
      <trkpt lat="43.80418" lon="5.34518">
        <ele>306.925507</ele>
        <time>2019-02-19T11:42:18Z</time>
      </trkpt>
      <trkpt lat="43.80414" lon="5.34496">
        <ele>301.133301</ele>
        <time>2019-02-19T11:42:34Z</time>
      </trkpt>
      <trkpt lat="43.804" lon="5.3449">
        <ele>300.599518</ele>
        <time>2019-02-19T11:42:49Z</time>
      </trkpt>
      <trkpt lat="43.80386" lon="5.34495">
        <ele>302.974121</ele>
        <time>2019-02-19T11:43:06Z</time>
      </trkpt>
      <trkpt lat="43.8037" lon="5.34499">
        <ele>305.553528</ele>
        <time>2019-02-19T11:43:21Z</time>
      </trkpt>
      <trkpt lat="43.80352" lon="5.34506">
        <ele>309.598969</ele>
        <time>2019-02-19T11:43:36Z</time>
      </trkpt>
      <trkpt lat="43.80335" lon="5.34506">
        <ele>311.217773</ele>
        <time>2019-02-19T11:43:51Z</time>
      </trkpt>
      <trkpt lat="43.8032" lon="5.34503">
        <ele>309.505432</ele>
        <time>2019-02-19T11:44:07Z</time>
      </trkpt>
      <trkpt lat="43.80307" lon="5.34507">
        <ele>310.572845</ele>
        <time>2019-02-19T11:44:23Z</time>
      </trkpt>
      <trkpt lat="43.80311" lon="5.34526">
        <ele>318.634033</ele>
        <time>2019-02-19T11:45:23Z</time>
      </trkpt>
      <trkpt lat="43.80302" lon="5.34512">
        <ele>312.609955</ele>
        <time>2019-02-19T11:45:39Z</time>
      </trkpt>
      <trkpt lat="43.80291" lon="5.34524">
        <ele>316.644989</ele>
        <time>2019-02-19T11:46:03Z</time>
      </trkpt>
      <trkpt lat="43.80279" lon="5.34537">
        <ele>321.065155</ele>
        <time>2019-02-19T11:46:18Z</time>
      </trkpt>
      <trkpt lat="43.80267" lon="5.34548">
        <ele>324.28006</ele>
        <time>2019-02-19T11:46:34Z</time>
      </trkpt>
      <trkpt lat="43.8025" lon="5.34552">
        <ele>324.651428</ele>
        <time>2019-02-19T11:46:50Z</time>
      </trkpt>
      <trkpt lat="43.80233" lon="5.34551">
        <ele>324.790497</ele>
        <time>2019-02-19T11:47:06Z</time>
      </trkpt>
      <trkpt lat="43.80218" lon="5.34554">
        <ele>326.278748</ele>
        <time>2019-02-19T11:47:21Z</time>
      </trkpt>
      <trkpt lat="43.80202" lon="5.34562">
        <ele>329.767395</ele>
        <time>2019-02-19T11:47:36Z</time>
      </trkpt>
      <trkpt lat="43.80187" lon="5.34565">
        <ele>331.502106</ele>
        <time>2019-02-19T11:47:51Z</time>
      </trkpt>
      <trkpt lat="43.80171" lon="5.34564">
        <ele>331.550842</ele>
        <time>2019-02-19T11:48:07Z</time>
      </trkpt>
      <trkpt lat="43.80157" lon="5.3456">
        <ele>331.097015</ele>
        <time>2019-02-19T11:48:25Z</time>
      </trkpt>
      <trkpt lat="43.80139" lon="5.34565">
        <ele>334.312195</ele>
        <time>2019-02-19T11:48:40Z</time>
      </trkpt>
      <trkpt lat="43.80123" lon="5.34567">
        <ele>336.557373</ele>
        <time>2019-02-19T11:48:55Z</time>
      </trkpt>
      <trkpt lat="43.80107" lon="5.34564">
        <ele>336.470673</ele>
        <time>2019-02-19T11:49:13Z</time>
      </trkpt>
      <trkpt lat="43.80095" lon="5.34555">
        <ele>334.296234</ele>
        <time>2019-02-19T11:49:29Z</time>
      </trkpt>
      <trkpt lat="43.8007" lon="5.34567">
        <ele>339.685638</ele>
        <time>2019-02-19T11:49:45Z</time>
      </trkpt>
      <trkpt lat="43.80057" lon="5.34563">
        <ele>339.015411</ele>
        <time>2019-02-19T11:50:01Z</time>
      </trkpt>
      <trkpt lat="43.80043" lon="5.34561">
        <ele>339.043091</ele>
        <time>2019-02-19T11:50:16Z</time>
      </trkpt>
      <trkpt lat="43.80029" lon="5.34554">
        <ele>337.789154</ele>
        <time>2019-02-19T11:50:31Z</time>
      </trkpt>
      <trkpt lat="43.8001" lon="5.34547">
        <ele>337.080048</ele>
        <time>2019-02-19T11:50:47Z</time>
      </trkpt>
      <trkpt lat="43.79987" lon="5.34536">
        <ele>334.513</ele>
        <time>2019-02-19T11:51:03Z</time>
      </trkpt>
      <trkpt lat="43.7997" lon="5.34533">
        <ele>332.831238</ele>
        <time>2019-02-19T11:51:18Z</time>
      </trkpt>
      <trkpt lat="43.79951" lon="5.34531">
        <ele>331.389587</ele>
        <time>2019-02-19T11:51:34Z</time>
      </trkpt>
      <trkpt lat="43.79933" lon="5.34538">
        <ele>331.812317</ele>
        <time>2019-02-19T11:51:49Z</time>
      </trkpt>
      <trkpt lat="43.79913" lon="5.34552">
        <ele>333.046509</ele>
        <time>2019-02-19T11:52:05Z</time>
      </trkpt>
      <trkpt lat="43.79896" lon="5.34568">
        <ele>334.091125</ele>
        <time>2019-02-19T11:52:20Z</time>
      </trkpt>
      <trkpt lat="43.7988" lon="5.34581">
        <ele>334.701599</ele>
        <time>2019-02-19T11:52:35Z</time>
      </trkpt>
      <trkpt lat="43.79861" lon="5.34591">
        <ele>333.585999</ele>
        <time>2019-02-19T11:52:51Z</time>
      </trkpt>
      <trkpt lat="43.79842" lon="5.34585">
        <ele>331.09317</ele>
        <time>2019-02-19T11:53:07Z</time>
      </trkpt>
      <trkpt lat="43.79825" lon="5.34576">
        <ele>328.566559</ele>
        <time>2019-02-19T11:53:22Z</time>
      </trkpt>
      <trkpt lat="43.79808" lon="5.34555">
        <ele>324.434753</ele>
        <time>2019-02-19T11:53:38Z</time>
      </trkpt>
      <trkpt lat="43.7979" lon="5.34543">
        <ele>321.608093</ele>
        <time>2019-02-19T11:53:54Z</time>
      </trkpt>
      <trkpt lat="43.79773" lon="5.34537">
        <ele>319.608978</ele>
        <time>2019-02-19T11:54:10Z</time>
      </trkpt>
      <trkpt lat="43.79753" lon="5.34536">
        <ele>318.312286</ele>
        <time>2019-02-19T11:54:26Z</time>
      </trkpt>
      <trkpt lat="43.79741" lon="5.34529">
        <ele>315.75531</ele>
        <time>2019-02-19T11:54:52Z</time>
      </trkpt>
      <trkpt lat="43.79722" lon="5.34522">
        <ele>312.206299</ele>
        <time>2019-02-19T11:55:07Z</time>
      </trkpt>
      <trkpt lat="43.79703" lon="5.34514">
        <ele>308.627258</ele>
        <time>2019-02-19T11:55:23Z</time>
      </trkpt>
      <trkpt lat="43.79686" lon="5.34521">
        <ele>307.555634</ele>
        <time>2019-02-19T11:55:38Z</time>
      </trkpt>
      <trkpt lat="43.79675" lon="5.34542">
        <ele>309.469177</ele>
        <time>2019-02-19T11:55:54Z</time>
      </trkpt>
      <trkpt lat="43.79672" lon="5.34563">
        <ele>312.434479</ele>
        <time>2019-02-19T11:56:09Z</time>
      </trkpt>
      <trkpt lat="43.79668" lon="5.34586">
        <ele>315.470032</ele>
        <time>2019-02-19T11:56:25Z</time>
      </trkpt>
      <trkpt lat="43.79664" lon="5.34607">
        <ele>317.365967</ele>
        <time>2019-02-19T11:56:40Z</time>
      </trkpt>
      <trkpt lat="43.7966" lon="5.34631">
        <ele>319.118317</ele>
        <time>2019-02-19T11:56:56Z</time>
      </trkpt>
      <trkpt lat="43.79654" lon="5.34655">
        <ele>320.741516</ele>
        <time>2019-02-19T11:57:12Z</time>
      </trkpt>
      <trkpt lat="43.79645" lon="5.34677">
        <ele>321.194244</ele>
        <time>2019-02-19T11:57:28Z</time>
      </trkpt>
      <trkpt lat="43.79632" lon="5.3469">
        <ele>319.128113</ele>
        <time>2019-02-19T11:57:44Z</time>
      </trkpt>
      <trkpt lat="43.79611" lon="5.34695">
        <ele>314.134003</ele>
        <time>2019-02-19T11:58:00Z</time>
      </trkpt>
      <trkpt lat="43.79589" lon="5.34706">
        <ele>310.075653</ele>
        <time>2019-02-19T11:58:16Z</time>
      </trkpt>
      <trkpt lat="43.79576" lon="5.34731">
        <ele>312.353485</ele>
        <time>2019-02-19T11:58:31Z</time>
      </trkpt>
      <trkpt lat="43.79564" lon="5.34754">
        <ele>314.883972</ele>
        <time>2019-02-19T11:58:46Z</time>
      </trkpt>
      <trkpt lat="43.79552" lon="5.34778">
        <ele>315.923157</ele>
        <time>2019-02-19T11:59:02Z</time>
      </trkpt>
      <trkpt lat="43.79542" lon="5.34803">
        <ele>316.838562</ele>
        <time>2019-02-19T11:59:18Z</time>
      </trkpt>
      <trkpt lat="43.79522" lon="5.34804">
        <ele>314.923645</ele>
        <time>2019-02-19T11:59:33Z</time>
      </trkpt>
      <trkpt lat="43.79509" lon="5.34788">
        <ele>312.634796</ele>
        <time>2019-02-19T11:59:48Z</time>
      </trkpt>
      <trkpt lat="43.79505" lon="5.34761">
        <ele>310.917511</ele>
        <time>2019-02-19T12:00:04Z</time>
      </trkpt>
      <trkpt lat="43.79507" lon="5.34736">
        <ele>308.35199</ele>
        <time>2019-02-19T12:00:19Z</time>
      </trkpt>
      <trkpt lat="43.79518" lon="5.34711">
        <ele>305.086884</ele>
        <time>2019-02-19T12:00:35Z</time>
      </trkpt>
      <trkpt lat="43.79517" lon="5.34685">
        <ele>300.887665</ele>
        <time>2019-02-19T12:00:51Z</time>
      </trkpt>
      <trkpt lat="43.79519" lon="5.34657">
        <ele>296.730621</ele>
        <time>2019-02-19T12:01:06Z</time>
      </trkpt>
      <trkpt lat="43.79525" lon="5.34627">
        <ele>292.585022</ele>
        <time>2019-02-19T12:01:22Z</time>
      </trkpt>
      <trkpt lat="43.79529" lon="5.34602">
        <ele>288.952271</ele>
        <time>2019-02-19T12:01:37Z</time>
      </trkpt>
      <trkpt lat="43.79535" lon="5.3458">
        <ele>285.661957</ele>
        <time>2019-02-19T12:01:52Z</time>
      </trkpt>
      <trkpt lat="43.79543" lon="5.3456">
        <ele>282.874878</ele>
        <time>2019-02-19T12:02:07Z</time>
      </trkpt>
      <trkpt lat="43.79549" lon="5.34538">
        <ele>279.795532</ele>
        <time>2019-02-19T12:02:22Z</time>
      </trkpt>
      <trkpt lat="43.79543" lon="5.34517">
        <ele>276.190704</ele>
        <time>2019-02-19T12:02:38Z</time>
      </trkpt>
      <trkpt lat="43.79537" lon="5.34492">
        <ele>271.781372</ele>
        <time>2019-02-19T12:02:53Z</time>
      </trkpt>
      <trkpt lat="43.79524" lon="5.34475">
        <ele>267.789948</ele>
        <time>2019-02-19T12:03:08Z</time>
      </trkpt>
      <trkpt lat="43.79511" lon="5.34452">
        <ele>262.591034</ele>
        <time>2019-02-19T12:03:24Z</time>
      </trkpt>
      <trkpt lat="43.79501" lon="5.34433">
        <ele>258.05957</ele>
        <time>2019-02-19T12:03:39Z</time>
      </trkpt>
      <trkpt lat="43.79488" lon="5.34414">
        <ele>254.821869</ele>
        <time>2019-02-19T12:03:55Z</time>
      </trkpt>
      <trkpt lat="43.79477" lon="5.34401">
        <ele>254.536591</ele>
        <time>2019-02-19T12:04:15Z</time>
      </trkpt>
      <trkpt lat="43.79456" lon="5.34399">
        <ele>254.256317</ele>
        <time>2019-02-19T12:04:30Z</time>
      </trkpt>
      <trkpt lat="43.79454" lon="5.34379">
        <ele>254.002045</ele>
        <time>2019-02-19T12:04:46Z</time>
      </trkpt>
      <trkpt lat="43.79443" lon="5.34366">
        <ele>253.716888</ele>
        <time>2019-02-19T12:05:21Z</time>
      </trkpt>
      <trkpt lat="43.79433" lon="5.34354">
        <ele>253.445984</ele>
        <time>2019-02-19T12:05:37Z</time>
      </trkpt>
      <trkpt lat="43.79429" lon="5.34336">
        <ele>253.182709</ele>
        <time>2019-02-19T12:26:49Z</time>
      </trkpt>
      <trkpt lat="43.79435" lon="5.34316">
        <ele>255.512848</ele>
        <time>2019-02-19T12:27:05Z</time>
      </trkpt>
      <trkpt lat="43.79434" lon="5.34297">
        <ele>258.013428</ele>
        <time>2019-02-19T12:27:47Z</time>
      </trkpt>
      <trkpt lat="43.79433" lon="5.34276">
        <ele>260.639038</ele>
        <time>2019-02-19T12:28:03Z</time>
      </trkpt>
      <trkpt lat="43.7943" lon="5.34257">
        <ele>262.652863</ele>
        <time>2019-02-19T12:28:18Z</time>
      </trkpt>
      <trkpt lat="43.79419" lon="5.34235">
        <ele>262.867065</ele>
        <time>2019-02-19T12:28:34Z</time>
      </trkpt>
      <trkpt lat="43.79414" lon="5.34211">
        <ele>264.648529</ele>
        <time>2019-02-19T12:28:49Z</time>
      </trkpt>
      <trkpt lat="43.79413" lon="5.34183">
        <ele>266.280365</ele>
        <time>2019-02-19T12:29:05Z</time>
      </trkpt>
      <trkpt lat="43.79405" lon="5.34168">
        <ele>270.934021</ele>
        <time>2019-02-19T12:29:25Z</time>
      </trkpt>
      <trkpt lat="43.79405" lon="5.34148">
        <ele>272.037018</ele>
        <time>2019-02-19T12:29:43Z</time>
      </trkpt>
      <trkpt lat="43.79375" lon="5.34109">
        <ele>286.808899</ele>
        <time>2019-02-19T12:29:59Z</time>
      </trkpt>
      <trkpt lat="43.79401" lon="5.34099">
        <ele>276.569702</ele>
        <time>2019-02-19T12:30:14Z</time>
      </trkpt>
      <trkpt lat="43.79397" lon="5.34075">
        <ele>279.702026</ele>
        <time>2019-02-19T12:30:30Z</time>
      </trkpt>
      <trkpt lat="43.79392" lon="5.34057">
        <ele>282.142548</ele>
        <time>2019-02-19T12:30:49Z</time>
      </trkpt>
      <trkpt lat="43.79382" lon="5.34039">
        <ele>284.870697</ele>
        <time>2019-02-19T12:31:04Z</time>
      </trkpt>
      <trkpt lat="43.79376" lon="5.34022">
        <ele>285.830444</ele>
        <time>2019-02-19T12:31:25Z</time>
      </trkpt>
      <trkpt lat="43.79358" lon="5.33997">
        <ele>286.016388</ele>
        <time>2019-02-19T12:31:41Z</time>
      </trkpt>
      <trkpt lat="43.79364" lon="5.3398">
        <ele>285.593628</ele>
        <time>2019-02-19T12:31:59Z</time>
      </trkpt>
      <trkpt lat="43.79356" lon="5.33953">
        <ele>284.31781</ele>
        <time>2019-02-19T12:32:15Z</time>
      </trkpt>
      <trkpt lat="43.79349" lon="5.33936">
        <ele>282.504639</ele>
        <time>2019-02-19T12:32:30Z</time>
      </trkpt>
      <trkpt lat="43.79348" lon="5.33917">
        <ele>281.171295</ele>
        <time>2019-02-19T12:32:50Z</time>
      </trkpt>
      <trkpt lat="43.79332" lon="5.3389">
        <ele>280.116547</ele>
        <time>2019-02-19T12:33:06Z</time>
      </trkpt>
      <trkpt lat="43.7932" lon="5.33882">
        <ele>285.118011</ele>
        <time>2019-02-19T12:33:22Z</time>
      </trkpt>
      <trkpt lat="43.79308" lon="5.33873">
        <ele>289.737427</ele>
        <time>2019-02-19T12:33:40Z</time>
      </trkpt>
      <trkpt lat="43.79308" lon="5.3385">
        <ele>289.589539</ele>
        <time>2019-02-19T12:33:55Z</time>
      </trkpt>
      <trkpt lat="43.79308" lon="5.33826">
        <ele>289.986023</ele>
        <time>2019-02-19T12:34:11Z</time>
      </trkpt>
      <trkpt lat="43.79311" lon="5.33806">
        <ele>290.041565</ele>
        <time>2019-02-19T12:34:26Z</time>
      </trkpt>
      <trkpt lat="43.79306" lon="5.33787">
        <ele>291.649078</ele>
        <time>2019-02-19T12:34:42Z</time>
      </trkpt>
      <trkpt lat="43.79298" lon="5.33768">
        <ele>293.199158</ele>
        <time>2019-02-19T12:34:57Z</time>
      </trkpt>
      <trkpt lat="43.79284" lon="5.33757">
        <ele>294.850952</ele>
        <time>2019-02-19T12:35:13Z</time>
      </trkpt>
      <trkpt lat="43.79276" lon="5.33741">
        <ele>295.552734</ele>
        <time>2019-02-19T12:35:31Z</time>
      </trkpt>
      <trkpt lat="43.7927" lon="5.3372">
        <ele>296.418854</ele>
        <time>2019-02-19T12:35:47Z</time>
      </trkpt>
      <trkpt lat="43.79276" lon="5.33703">
        <ele>295.903595</ele>
        <time>2019-02-19T12:36:04Z</time>
      </trkpt>
      <trkpt lat="43.79286" lon="5.33689">
        <ele>294.777527</ele>
        <time>2019-02-19T12:36:33Z</time>
      </trkpt>
      <trkpt lat="43.79298" lon="5.33677">
        <ele>293.195892</ele>
        <time>2019-02-19T12:36:48Z</time>
      </trkpt>
      <trkpt lat="43.79306" lon="5.33659">
        <ele>292.51828</ele>
        <time>2019-02-19T12:37:04Z</time>
      </trkpt>
      <trkpt lat="43.79315" lon="5.33641">
        <ele>292.051208</ele>
        <time>2019-02-19T12:37:20Z</time>
      </trkpt>
      <trkpt lat="43.79319" lon="5.33623">
        <ele>292.034546</ele>
        <time>2019-02-19T12:37:37Z</time>
      </trkpt>
      <trkpt lat="43.79327" lon="5.33607">
        <ele>290.55545</ele>
        <time>2019-02-19T12:37:53Z</time>
      </trkpt>
      <trkpt lat="43.79335" lon="5.33591">
        <ele>289.19165</ele>
        <time>2019-02-19T12:38:09Z</time>
      </trkpt>
      <trkpt lat="43.79343" lon="5.33576">
        <ele>291.308105</ele>
        <time>2019-02-19T12:38:25Z</time>
      </trkpt>
      <trkpt lat="43.79347" lon="5.33557">
        <ele>293.623383</ele>
        <time>2019-02-19T12:38:41Z</time>
      </trkpt>
      <trkpt lat="43.79337" lon="5.33541">
        <ele>293.520142</ele>
        <time>2019-02-19T12:39:01Z</time>
      </trkpt>
      <trkpt lat="43.79363" lon="5.33545">
        <ele>296.868408</ele>
        <time>2019-02-19T12:39:16Z</time>
      </trkpt>
      <trkpt lat="43.79369" lon="5.33562">
        <ele>296.40921</ele>
        <time>2019-02-19T12:39:46Z</time>
      </trkpt>
      <trkpt lat="43.79376" lon="5.33579">
        <ele>296.409973</ele>
        <time>2019-02-19T12:41:32Z</time>
      </trkpt>
      <trkpt lat="43.79368" lon="5.33599">
        <ele>295.703766</ele>
        <time>2019-02-19T12:41:47Z</time>
      </trkpt>
      <trkpt lat="43.79354" lon="5.33615">
        <ele>293.373138</ele>
        <time>2019-02-19T12:42:02Z</time>
      </trkpt>
      <trkpt lat="43.79347" lon="5.33631">
        <ele>291.995972</ele>
        <time>2019-02-19T12:42:19Z</time>
      </trkpt>
      <trkpt lat="43.79343" lon="5.3365">
        <ele>290.930481</ele>
        <time>2019-02-19T12:42:35Z</time>
      </trkpt>
      <trkpt lat="43.79343" lon="5.33668">
        <ele>291.286774</ele>
        <time>2019-02-19T12:42:52Z</time>
      </trkpt>
      <trkpt lat="43.79355" lon="5.33657">
        <ele>294.643066</ele>
        <time>2019-02-19T12:43:28Z</time>
      </trkpt>
      <trkpt lat="43.79365" lon="5.33644">
        <ele>297.064423</ele>
        <time>2019-02-19T12:43:44Z</time>
      </trkpt>
      <trkpt lat="43.79373" lon="5.33629">
        <ele>298.425415</ele>
        <time>2019-02-19T12:44:02Z</time>
      </trkpt>
      <trkpt lat="43.79382" lon="5.33614">
        <ele>299.600342</ele>
        <time>2019-02-19T12:44:18Z</time>
      </trkpt>
      <trkpt lat="43.79393" lon="5.33602">
        <ele>300.909088</ele>
        <time>2019-02-19T12:44:34Z</time>
      </trkpt>
      <trkpt lat="43.794" lon="5.33585">
        <ele>300.332397</ele>
        <time>2019-02-19T12:44:49Z</time>
      </trkpt>
      <trkpt lat="43.79414" lon="5.33576">
        <ele>302.810364</ele>
        <time>2019-02-19T12:45:05Z</time>
      </trkpt>
      <trkpt lat="43.79425" lon="5.33566">
        <ele>306.237244</ele>
        <time>2019-02-19T12:45:22Z</time>
      </trkpt>
      <trkpt lat="43.79438" lon="5.33548">
        <ele>310.635437</ele>
        <time>2019-02-19T12:45:38Z</time>
      </trkpt>
      <trkpt lat="43.7943" lon="5.33532">
        <ele>308.919922</ele>
        <time>2019-02-19T12:46:00Z</time>
      </trkpt>
      <trkpt lat="43.79425" lon="5.33513">
        <ele>308.111603</ele>
        <time>2019-02-19T12:46:25Z</time>
      </trkpt>
      <trkpt lat="43.79424" lon="5.33495">
        <ele>308.954773</ele>
        <time>2019-02-19T12:46:42Z</time>
      </trkpt>
      <trkpt lat="43.79426" lon="5.33475">
        <ele>312.567688</ele>
        <time>2019-02-19T12:47:01Z</time>
      </trkpt>
      <trkpt lat="43.79423" lon="5.33456">
        <ele>314.661469</ele>
        <time>2019-02-19T12:47:20Z</time>
      </trkpt>
      <trkpt lat="43.79424" lon="5.33436">
        <ele>318.095245</ele>
        <time>2019-02-19T12:47:35Z</time>
      </trkpt>
      <trkpt lat="43.79421" lon="5.33418">
        <ele>320.16153</ele>
        <time>2019-02-19T12:47:50Z</time>
      </trkpt>
      <trkpt lat="43.79421" lon="5.33399">
        <ele>322.603638</ele>
        <time>2019-02-19T12:48:10Z</time>
      </trkpt>
      <trkpt lat="43.79417" lon="5.3338">
        <ele>324.021942</ele>
        <time>2019-02-19T12:48:25Z</time>
      </trkpt>
      <trkpt lat="43.79415" lon="5.3336">
        <ele>326.274933</ele>
        <time>2019-02-19T12:48:50Z</time>
      </trkpt>
      <trkpt lat="43.79409" lon="5.33343">
        <ele>327.934082</ele>
        <time>2019-02-19T12:49:07Z</time>
      </trkpt>
      <trkpt lat="43.79406" lon="5.33324">
        <ele>330.60318</ele>
        <time>2019-02-19T12:49:31Z</time>
      </trkpt>
      <trkpt lat="43.79402" lon="5.33306">
        <ele>333.133118</ele>
        <time>2019-02-19T12:49:47Z</time>
      </trkpt>
      <trkpt lat="43.79399" lon="5.33287">
        <ele>335.794678</ele>
        <time>2019-02-19T12:50:05Z</time>
      </trkpt>
      <trkpt lat="43.79391" lon="5.33272">
        <ele>336.991638</ele>
        <time>2019-02-19T12:50:28Z</time>
      </trkpt>
      <trkpt lat="43.79383" lon="5.33254">
        <ele>338.400391</ele>
        <time>2019-02-19T12:50:47Z</time>
      </trkpt>
      <trkpt lat="43.79395" lon="5.33245">
        <ele>341.718079</ele>
        <time>2019-02-19T12:51:52Z</time>
      </trkpt>
      <trkpt lat="43.7941" lon="5.33249">
        <ele>343.870667</ele>
        <time>2019-02-19T12:52:07Z</time>
      </trkpt>
      <trkpt lat="43.79406" lon="5.3323">
        <ele>345.276764</ele>
        <time>2019-02-19T12:52:42Z</time>
      </trkpt>
      <trkpt lat="43.794" lon="5.33214">
        <ele>345.77597</ele>
        <time>2019-02-19T12:52:57Z</time>
      </trkpt>
      <trkpt lat="43.79397" lon="5.33195">
        <ele>347.115692</ele>
        <time>2019-02-19T12:53:12Z</time>
      </trkpt>
      <trkpt lat="43.79396" lon="5.33176">
        <ele>349.047577</ele>
        <time>2019-02-19T12:53:34Z</time>
      </trkpt>
      <trkpt lat="43.79395" lon="5.33157">
        <ele>350.28952</ele>
        <time>2019-02-19T12:53:53Z</time>
      </trkpt>
      <trkpt lat="43.79393" lon="5.33138">
        <ele>351.021942</ele>
        <time>2019-02-19T12:54:09Z</time>
      </trkpt>
      <trkpt lat="43.794" lon="5.3312">
        <ele>353.371124</ele>
        <time>2019-02-19T12:54:31Z</time>
      </trkpt>
      <trkpt lat="43.79404" lon="5.33101">
        <ele>355.098206</ele>
        <time>2019-02-19T12:54:47Z</time>
      </trkpt>
      <trkpt lat="43.79408" lon="5.33083">
        <ele>356.718536</ele>
        <time>2019-02-19T12:55:06Z</time>
      </trkpt>
      <trkpt lat="43.79407" lon="5.3306">
        <ele>357.338348</ele>
        <time>2019-02-19T12:55:22Z</time>
      </trkpt>
      <trkpt lat="43.7941" lon="5.33041">
        <ele>358.506653</ele>
        <time>2019-02-19T12:55:37Z</time>
      </trkpt>
      <trkpt lat="43.7941" lon="5.3302">
        <ele>359.310577</ele>
        <time>2019-02-19T12:55:53Z</time>
      </trkpt>
      <trkpt lat="43.79411" lon="5.33001">
        <ele>360.081604</ele>
        <time>2019-02-19T12:56:11Z</time>
      </trkpt>
      <trkpt lat="43.79415" lon="5.32981">
        <ele>361.150604</ele>
        <time>2019-02-19T12:56:28Z</time>
      </trkpt>
      <trkpt lat="43.79417" lon="5.32958">
        <ele>362.213135</ele>
        <time>2019-02-19T12:56:43Z</time>
      </trkpt>
      <trkpt lat="43.79418" lon="5.32939">
        <ele>362.744049</ele>
        <time>2019-02-19T12:57:22Z</time>
      </trkpt>
      <trkpt lat="43.79421" lon="5.32917">
        <ele>363.938202</ele>
        <time>2019-02-19T12:57:37Z</time>
      </trkpt>
      <trkpt lat="43.79417" lon="5.32887">
        <ele>363.739716</ele>
        <time>2019-02-19T12:57:52Z</time>
      </trkpt>
      <trkpt lat="43.79419" lon="5.32868">
        <ele>364.680573</ele>
        <time>2019-02-19T12:58:10Z</time>
      </trkpt>
      <trkpt lat="43.79419" lon="5.32848">
        <ele>365.159882</ele>
        <time>2019-02-19T12:58:32Z</time>
      </trkpt>
      <trkpt lat="43.7942" lon="5.32828">
        <ele>365.909058</ele>
        <time>2019-02-19T12:58:48Z</time>
      </trkpt>
      <trkpt lat="43.79415" lon="5.32808">
        <ele>365.681274</ele>
        <time>2019-02-19T12:59:03Z</time>
      </trkpt>
      <trkpt lat="43.79405" lon="5.32822">
        <ele>363.904572</ele>
        <time>2019-02-19T13:00:03Z</time>
      </trkpt>
      <trkpt lat="43.79392" lon="5.3284">
        <ele>361.607849</ele>
        <time>2019-02-19T13:00:19Z</time>
      </trkpt>
      <trkpt lat="43.7938" lon="5.32861">
        <ele>359.425903</ele>
        <time>2019-02-19T13:00:35Z</time>
      </trkpt>
      <trkpt lat="43.79368" lon="5.32871">
        <ele>357.641541</ele>
        <time>2019-02-19T13:00:52Z</time>
      </trkpt>
      <trkpt lat="43.79352" lon="5.32871">
        <ele>355.501465</ele>
        <time>2019-02-19T13:01:08Z</time>
      </trkpt>
      <trkpt lat="43.7934" lon="5.3286">
        <ele>354.222229</ele>
        <time>2019-02-19T13:01:35Z</time>
      </trkpt>
      <trkpt lat="43.79332" lon="5.32843">
        <ele>354.021515</ele>
        <time>2019-02-19T13:01:51Z</time>
      </trkpt>
      <trkpt lat="43.79319" lon="5.3283">
        <ele>356.3237</ele>
        <time>2019-02-19T13:02:07Z</time>
      </trkpt>
      <trkpt lat="43.79314" lon="5.32848">
        <ele>357.152832</ele>
        <time>2019-02-19T13:03:02Z</time>
      </trkpt>
      <trkpt lat="43.79301" lon="5.32855">
        <ele>360.071594</ele>
        <time>2019-02-19T13:03:25Z</time>
      </trkpt>
      <trkpt lat="43.79289" lon="5.32845">
        <ele>361.512238</ele>
        <time>2019-02-19T13:03:47Z</time>
      </trkpt>
      <trkpt lat="43.79278" lon="5.32834">
        <ele>361.976196</ele>
        <time>2019-02-19T13:04:13Z</time>
      </trkpt>
      <trkpt lat="43.79264" lon="5.32835">
        <ele>364.164886</ele>
        <time>2019-02-19T13:04:34Z</time>
      </trkpt>
      <trkpt lat="43.79251" lon="5.32828">
        <ele>366.608612</ele>
        <time>2019-02-19T13:05:01Z</time>
      </trkpt>
      <trkpt lat="43.79239" lon="5.32818">
        <ele>371.553192</ele>
        <time>2019-02-19T13:05:22Z</time>
      </trkpt>
      <trkpt lat="43.79226" lon="5.32815">
        <ele>376.112213</ele>
        <time>2019-02-19T13:05:45Z</time>
      </trkpt>
      <trkpt lat="43.79212" lon="5.32813">
        <ele>380.503571</ele>
        <time>2019-02-19T13:06:14Z</time>
      </trkpt>
      <trkpt lat="43.792" lon="5.32805">
        <ele>385.309235</ele>
        <time>2019-02-19T13:06:44Z</time>
      </trkpt>
      <trkpt lat="43.79186" lon="5.32801">
        <ele>389.904022</ele>
        <time>2019-02-19T13:07:47Z</time>
      </trkpt>
      <trkpt lat="43.79172" lon="5.32799">
        <ele>394.417389</ele>
        <time>2019-02-19T13:08:13Z</time>
      </trkpt>
      <trkpt lat="43.79158" lon="5.32801">
        <ele>397.77243</ele>
        <time>2019-02-19T13:08:35Z</time>
      </trkpt>
      <trkpt lat="43.79147" lon="5.32789">
        <ele>400.843323</ele>
        <time>2019-02-19T13:09:01Z</time>
      </trkpt>
      <trkpt lat="43.79134" lon="5.32781">
        <ele>403.390808</ele>
        <time>2019-02-19T13:09:23Z</time>
      </trkpt>
      <trkpt lat="43.79121" lon="5.32773">
        <ele>405.346039</ele>
        <time>2019-02-19T13:09:46Z</time>
      </trkpt>
      <trkpt lat="43.79113" lon="5.32758">
        <ele>406.099823</ele>
        <time>2019-02-19T13:10:17Z</time>
      </trkpt>
      <trkpt lat="43.79099" lon="5.32761">
        <ele>407.603241</ele>
        <time>2019-02-19T13:10:44Z</time>
      </trkpt>
      <trkpt lat="43.79086" lon="5.32768">
        <ele>409.605713</ele>
        <time>2019-02-19T13:11:04Z</time>
      </trkpt>
      <trkpt lat="43.79073" lon="5.32771">
        <ele>413.720795</ele>
        <time>2019-02-19T13:11:23Z</time>
      </trkpt>
      <trkpt lat="43.79061" lon="5.32782">
        <ele>418.282288</ele>
        <time>2019-02-19T13:11:51Z</time>
      </trkpt>
      <trkpt lat="43.79054" lon="5.32798">
        <ele>421.351196</ele>
        <time>2019-02-19T13:12:26Z</time>
      </trkpt>
      <trkpt lat="43.79042" lon="5.32808">
        <ele>424.91571</ele>
        <time>2019-02-19T13:12:52Z</time>
      </trkpt>
      <trkpt lat="43.7903" lon="5.32817">
        <ele>428.376709</ele>
        <time>2019-02-19T13:13:26Z</time>
      </trkpt>
      <trkpt lat="43.79019" lon="5.32829">
        <ele>430.980621</ele>
        <time>2019-02-19T13:14:07Z</time>
      </trkpt>
      <trkpt lat="43.79006" lon="5.32838">
        <ele>434.812744</ele>
        <time>2019-02-19T13:14:37Z</time>
      </trkpt>
      <trkpt lat="43.78994" lon="5.32846">
        <ele>440.595398</ele>
        <time>2019-02-19T13:15:18Z</time>
      </trkpt>
      <trkpt lat="43.78984" lon="5.32858">
        <ele>447.039734</ele>
        <time>2019-02-19T13:15:59Z</time>
      </trkpt>
      <trkpt lat="43.78971" lon="5.32867">
        <ele>452.824829</ele>
        <time>2019-02-19T13:16:37Z</time>
      </trkpt>
      <trkpt lat="43.78969" lon="5.32886">
        <ele>456.182983</ele>
        <time>2019-02-19T13:17:06Z</time>
      </trkpt>
      <trkpt lat="43.78955" lon="5.32885">
        <ele>459.718872</ele>
        <time>2019-02-19T13:17:30Z</time>
      </trkpt>
      <trkpt lat="43.78941" lon="5.32891">
        <ele>463.835388</ele>
        <time>2019-02-19T13:17:54Z</time>
      </trkpt>
      <trkpt lat="43.78927" lon="5.32894">
        <ele>467.13501</ele>
        <time>2019-02-19T13:18:47Z</time>
      </trkpt>
      <trkpt lat="43.78914" lon="5.32898">
        <ele>470.242096</ele>
        <time>2019-02-19T13:19:02Z</time>
      </trkpt>
      <trkpt lat="43.78905" lon="5.32913">
        <ele>471.610779</ele>
        <time>2019-02-19T13:19:53Z</time>
      </trkpt>
      <trkpt lat="43.78892" lon="5.32919">
        <ele>474.878479</ele>
        <time>2019-02-19T13:20:18Z</time>
      </trkpt>
      <trkpt lat="43.78879" lon="5.32915">
        <ele>477.406494</ele>
        <time>2019-02-19T13:20:41Z</time>
      </trkpt>
      <trkpt lat="43.78871" lon="5.32931">
        <ele>481.289185</ele>
        <time>2019-02-19T13:21:13Z</time>
      </trkpt>
      <trkpt lat="43.7886" lon="5.32943">
        <ele>484.996033</ele>
        <time>2019-02-19T13:21:42Z</time>
      </trkpt>
      <trkpt lat="43.78853" lon="5.3296">
        <ele>488.022247</ele>
        <time>2019-02-19T13:22:14Z</time>
      </trkpt>
      <trkpt lat="43.78841" lon="5.32968">
        <ele>490.089813</ele>
        <time>2019-02-19T13:22:41Z</time>
      </trkpt>
      <trkpt lat="43.7883" lon="5.3298">
        <ele>492.492493</ele>
        <time>2019-02-19T13:23:04Z</time>
      </trkpt>
      <trkpt lat="43.78818" lon="5.3299">
        <ele>496.164276</ele>
        <time>2019-02-19T13:23:41Z</time>
      </trkpt>
      <trkpt lat="43.78804" lon="5.32995">
        <ele>499.66687</ele>
        <time>2019-02-19T13:23:57Z</time>
      </trkpt>
      <trkpt lat="43.78795" lon="5.33009">
        <ele>503.40863</ele>
        <time>2019-02-19T13:24:30Z</time>
      </trkpt>
      <trkpt lat="43.78781" lon="5.33005">
        <ele>505.819397</ele>
        <time>2019-02-19T13:24:48Z</time>
      </trkpt>
      <trkpt lat="43.78768" lon="5.32998">
        <ele>508.012451</ele>
        <time>2019-02-19T13:25:14Z</time>
      </trkpt>
      <trkpt lat="43.78754" lon="5.32996">
        <ele>511.466217</ele>
        <time>2019-02-19T13:26:13Z</time>
      </trkpt>
      <trkpt lat="43.7874" lon="5.32996">
        <ele>515.484863</ele>
        <time>2019-02-19T13:26:34Z</time>
      </trkpt>
      <trkpt lat="43.78726" lon="5.33">
        <ele>519.162598</ele>
        <time>2019-02-19T13:27:15Z</time>
      </trkpt>
      <trkpt lat="43.78713" lon="5.32995">
        <ele>523.820923</ele>
        <time>2019-02-19T13:27:54Z</time>
      </trkpt>
      <trkpt lat="43.787" lon="5.32999">
        <ele>527.129456</ele>
        <time>2019-02-19T13:28:22Z</time>
      </trkpt>
      <trkpt lat="43.78686" lon="5.33">
        <ele>531.169067</ele>
        <time>2019-02-19T13:28:56Z</time>
      </trkpt>
      <trkpt lat="43.78672" lon="5.32997">
        <ele>536.043213</ele>
        <time>2019-02-19T13:29:23Z</time>
      </trkpt>
      <trkpt lat="43.7866" lon="5.33006">
        <ele>539.694031</ele>
        <time>2019-02-19T13:29:46Z</time>
      </trkpt>
      <trkpt lat="43.78648" lon="5.32996">
        <ele>543.444763</ele>
        <time>2019-02-19T13:30:06Z</time>
      </trkpt>
      <trkpt lat="43.78635" lon="5.3299">
        <ele>548.687744</ele>
        <time>2019-02-19T13:30:53Z</time>
      </trkpt>
      <trkpt lat="43.78619" lon="5.32996">
        <ele>552.65271</ele>
        <time>2019-02-19T13:31:48Z</time>
      </trkpt>
      <trkpt lat="43.78606" lon="5.32989">
        <ele>557.807251</ele>
        <time>2019-02-19T13:32:19Z</time>
      </trkpt>
      <trkpt lat="43.78595" lon="5.32977">
        <ele>562.973145</ele>
        <time>2019-02-19T13:32:42Z</time>
      </trkpt>
      <trkpt lat="43.78579" lon="5.32982">
        <ele>567.007019</ele>
        <time>2019-02-19T13:33:06Z</time>
      </trkpt>
      <trkpt lat="43.78566" lon="5.32977">
        <ele>571.801514</ele>
        <time>2019-02-19T13:33:37Z</time>
      </trkpt>
      <trkpt lat="43.78556" lon="5.3299">
        <ele>573.132202</ele>
        <time>2019-02-19T13:34:28Z</time>
      </trkpt>
      <trkpt lat="43.78542" lon="5.32993">
        <ele>577.102661</ele>
        <time>2019-02-19T13:35:08Z</time>
      </trkpt>
      <trkpt lat="43.78529" lon="5.32992">
        <ele>581.502808</ele>
        <time>2019-02-19T13:35:46Z</time>
      </trkpt>
      <trkpt lat="43.78515" lon="5.32987">
        <ele>586.016846</ele>
        <time>2019-02-19T13:36:38Z</time>
      </trkpt>
      <trkpt lat="43.78507" lon="5.32973">
        <ele>589.606995</ele>
        <time>2019-02-19T13:36:59Z</time>
      </trkpt>
      <trkpt lat="43.78496" lon="5.32962">
        <ele>592.167847</ele>
        <time>2019-02-19T13:37:23Z</time>
      </trkpt>
      <trkpt lat="43.78482" lon="5.32962">
        <ele>591.884521</ele>
        <time>2019-02-19T13:37:47Z</time>
      </trkpt>
      <trkpt lat="43.7848" lon="5.32981">
        <ele>590.339233</ele>
        <time>2019-02-19T13:38:11Z</time>
      </trkpt>
      <trkpt lat="43.78482" lon="5.33001">
        <ele>588.946716</ele>
        <time>2019-02-19T13:38:45Z</time>
      </trkpt>
      <trkpt lat="43.78488" lon="5.3302">
        <ele>590.365662</ele>
        <time>2019-02-19T13:39:01Z</time>
      </trkpt>
      <trkpt lat="43.78498" lon="5.33038">
        <ele>592.443604</ele>
        <time>2019-02-19T13:39:17Z</time>
      </trkpt>
      <trkpt lat="43.785" lon="5.33057">
        <ele>594.124695</ele>
        <time>2019-02-19T13:39:36Z</time>
      </trkpt>
      <trkpt lat="43.78503" lon="5.33076">
        <ele>594.578857</ele>
        <time>2019-02-19T13:39:53Z</time>
      </trkpt>
      <trkpt lat="43.7851" lon="5.33093">
        <ele>593.524231</ele>
        <time>2019-02-19T13:40:09Z</time>
      </trkpt>
      <trkpt lat="43.78515" lon="5.3311">
        <ele>592.279968</ele>
        <time>2019-02-19T13:40:25Z</time>
      </trkpt>
      <trkpt lat="43.78519" lon="5.3313">
        <ele>591.73938</ele>
        <time>2019-02-19T13:40:43Z</time>
      </trkpt>
      <trkpt lat="43.78521" lon="5.33149">
        <ele>591.5354</ele>
        <time>2019-02-19T13:40:58Z</time>
      </trkpt>
      <trkpt lat="43.78518" lon="5.33168">
        <ele>592.060303</ele>
        <time>2019-02-19T13:41:16Z</time>
      </trkpt>
      <trkpt lat="43.78514" lon="5.33187">
        <ele>590.776428</ele>
        <time>2019-02-19T13:41:33Z</time>
      </trkpt>
      <trkpt lat="43.7851" lon="5.33205">
        <ele>589.591248</ele>
        <time>2019-02-19T13:41:49Z</time>
      </trkpt>
      <trkpt lat="43.78505" lon="5.33226">
        <ele>588.378601</ele>
        <time>2019-02-19T13:42:05Z</time>
      </trkpt>
      <trkpt lat="43.78506" lon="5.33246">
        <ele>586.312622</ele>
        <time>2019-02-19T13:42:22Z</time>
      </trkpt>
      <trkpt lat="43.78502" lon="5.33265">
        <ele>585.085693</ele>
        <time>2019-02-19T13:42:38Z</time>
      </trkpt>
      <trkpt lat="43.78494" lon="5.33281">
        <ele>582.916016</ele>
        <time>2019-02-19T13:42:54Z</time>
      </trkpt>
      <trkpt lat="43.78492" lon="5.333">
        <ele>580.87085</ele>
        <time>2019-02-19T13:43:10Z</time>
      </trkpt>
      <trkpt lat="43.78478" lon="5.33302">
        <ele>578.374451</ele>
        <time>2019-02-19T13:47:48Z</time>
      </trkpt>
      <trkpt lat="43.78464" lon="5.333">
        <ele>576.335144</ele>
        <time>2019-02-19T13:48:09Z</time>
      </trkpt>
      <trkpt lat="43.78451" lon="5.33307">
        <ele>573.794678</ele>
        <time>2019-02-19T13:48:34Z</time>
      </trkpt>
      <trkpt lat="43.78438" lon="5.33311">
        <ele>571.350159</ele>
        <time>2019-02-19T13:48:58Z</time>
      </trkpt>
      <trkpt lat="43.78426" lon="5.33322">
        <ele>568.927246</ele>
        <time>2019-02-19T13:49:19Z</time>
      </trkpt>
      <trkpt lat="43.78412" lon="5.33328">
        <ele>565.73053</ele>
        <time>2019-02-19T13:49:39Z</time>
      </trkpt>
      <trkpt lat="43.78403" lon="5.33342">
        <ele>561.168823</ele>
        <time>2019-02-19T13:49:59Z</time>
      </trkpt>
      <trkpt lat="43.78389" lon="5.33344">
        <ele>556.402161</ele>
        <time>2019-02-19T13:50:21Z</time>
      </trkpt>
      <trkpt lat="43.78375" lon="5.33346">
        <ele>551.485962</ele>
        <time>2019-02-19T13:51:08Z</time>
      </trkpt>
      <trkpt lat="43.78361" lon="5.33343">
        <ele>547.192688</ele>
        <time>2019-02-19T13:51:27Z</time>
      </trkpt>
      <trkpt lat="43.78345" lon="5.33336">
        <ele>542.711548</ele>
        <time>2019-02-19T13:51:43Z</time>
      </trkpt>
      <trkpt lat="43.78333" lon="5.33327">
        <ele>538.91394</ele>
        <time>2019-02-19T13:52:00Z</time>
      </trkpt>
      <trkpt lat="43.78319" lon="5.33328">
        <ele>537.097351</ele>
        <time>2019-02-19T13:52:18Z</time>
      </trkpt>
      <trkpt lat="43.78303" lon="5.33329">
        <ele>535.172363</ele>
        <time>2019-02-19T13:52:34Z</time>
      </trkpt>
      <trkpt lat="43.78288" lon="5.33333">
        <ele>533.560181</ele>
        <time>2019-02-19T13:52:49Z</time>
      </trkpt>
      <trkpt lat="43.78277" lon="5.33322">
        <ele>531.182678</ele>
        <time>2019-02-19T13:53:05Z</time>
      </trkpt>
      <trkpt lat="43.78263" lon="5.33329">
        <ele>530.076172</ele>
        <time>2019-02-19T13:53:21Z</time>
      </trkpt>
      <trkpt lat="43.78248" lon="5.3333">
        <ele>528.628967</ele>
        <time>2019-02-19T13:53:36Z</time>
      </trkpt>
      <trkpt lat="43.78234" lon="5.33327">
        <ele>528.548645</ele>
        <time>2019-02-19T13:54:18Z</time>
      </trkpt>
      <trkpt lat="43.78218" lon="5.33324">
        <ele>528.500916</ele>
        <time>2019-02-19T13:54:33Z</time>
      </trkpt>
      <trkpt lat="43.78201" lon="5.33328">
        <ele>529.432556</ele>
        <time>2019-02-19T13:54:49Z</time>
      </trkpt>
      <trkpt lat="43.78188" lon="5.33323">
        <ele>529.049377</ele>
        <time>2019-02-19T13:55:06Z</time>
      </trkpt>
      <trkpt lat="43.78175" lon="5.33316">
        <ele>528.338379</ele>
        <time>2019-02-19T13:55:23Z</time>
      </trkpt>
      <trkpt lat="43.78161" lon="5.33316">
        <ele>527.701172</ele>
        <time>2019-02-19T13:55:39Z</time>
      </trkpt>
      <trkpt lat="43.78147" lon="5.33322">
        <ele>526.734863</ele>
        <time>2019-02-19T13:55:55Z</time>
      </trkpt>
      <trkpt lat="43.78134" lon="5.33333">
        <ele>526.566162</ele>
        <time>2019-02-19T13:56:11Z</time>
      </trkpt>
      <trkpt lat="43.78118" lon="5.33338">
        <ele>524.011353</ele>
        <time>2019-02-19T13:56:27Z</time>
      </trkpt>
      <trkpt lat="43.78104" lon="5.33346">
        <ele>521.519836</ele>
        <time>2019-02-19T13:56:43Z</time>
      </trkpt>
      <trkpt lat="43.78099" lon="5.33364">
        <ele>519.368103</ele>
        <time>2019-02-19T13:56:59Z</time>
      </trkpt>
      <trkpt lat="43.78086" lon="5.33371">
        <ele>517.926636</ele>
        <time>2019-02-19T13:57:15Z</time>
      </trkpt>
      <trkpt lat="43.78089" lon="5.33389">
        <ele>516.847961</ele>
        <time>2019-02-19T13:57:33Z</time>
      </trkpt>
      <trkpt lat="43.78091" lon="5.33408">
        <ele>515.544067</ele>
        <time>2019-02-19T13:57:53Z</time>
      </trkpt>
      <trkpt lat="43.78081" lon="5.33424">
        <ele>513.428955</ele>
        <time>2019-02-19T13:58:09Z</time>
      </trkpt>
      <trkpt lat="43.78075" lon="5.33441">
        <ele>509.607758</ele>
        <time>2019-02-19T13:58:33Z</time>
      </trkpt>
      <trkpt lat="43.78073" lon="5.3346">
        <ele>505.488098</ele>
        <time>2019-02-19T13:59:00Z</time>
      </trkpt>
      <trkpt lat="43.78068" lon="5.33478">
        <ele>501.55957</ele>
        <time>2019-02-19T13:59:16Z</time>
      </trkpt>
      <trkpt lat="43.78077" lon="5.33492">
        <ele>498.520966</ele>
        <time>2019-02-19T13:59:35Z</time>
      </trkpt>
      <trkpt lat="43.78073" lon="5.3351">
        <ele>494.311035</ele>
        <time>2019-02-19T13:59:55Z</time>
      </trkpt>
      <trkpt lat="43.7806" lon="5.33518">
        <ele>492.356812</ele>
        <time>2019-02-19T14:00:12Z</time>
      </trkpt>
      <trkpt lat="43.78049" lon="5.33527">
        <ele>490.110016</ele>
        <time>2019-02-19T14:00:35Z</time>
      </trkpt>
      <trkpt lat="43.78035" lon="5.33528">
        <ele>489.76062</ele>
        <time>2019-02-19T14:00:55Z</time>
      </trkpt>
      <trkpt lat="43.78022" lon="5.33536">
        <ele>487.791595</ele>
        <time>2019-02-19T14:01:22Z</time>
      </trkpt>
      <trkpt lat="43.78011" lon="5.33548">
        <ele>485.33728</ele>
        <time>2019-02-19T14:01:40Z</time>
      </trkpt>
      <trkpt lat="43.78001" lon="5.33561">
        <ele>482.54541</ele>
        <time>2019-02-19T14:01:55Z</time>
      </trkpt>
      <trkpt lat="43.77993" lon="5.33576">
        <ele>479.768494</ele>
        <time>2019-02-19T14:02:14Z</time>
      </trkpt>
      <trkpt lat="43.77984" lon="5.33592">
        <ele>477.353394</ele>
        <time>2019-02-19T14:02:30Z</time>
      </trkpt>
      <trkpt lat="43.77972" lon="5.33601">
        <ele>476.246002</ele>
        <time>2019-02-19T14:02:50Z</time>
      </trkpt>
      <trkpt lat="43.77965" lon="5.33618">
        <ele>473.243622</ele>
        <time>2019-02-19T14:03:05Z</time>
      </trkpt>
      <trkpt lat="43.77958" lon="5.33636">
        <ele>469.970276</ele>
        <time>2019-02-19T14:03:28Z</time>
      </trkpt>
      <trkpt lat="43.77953" lon="5.33661">
        <ele>464.837616</ele>
        <time>2019-02-19T14:03:43Z</time>
      </trkpt>
      <trkpt lat="43.77939" lon="5.33666">
        <ele>463.305054</ele>
        <time>2019-02-19T14:04:07Z</time>
      </trkpt>
      <trkpt lat="43.77933" lon="5.33687">
        <ele>458.628967</ele>
        <time>2019-02-19T14:04:22Z</time>
      </trkpt>
      <trkpt lat="43.77932" lon="5.33706">
        <ele>454.747803</ele>
        <time>2019-02-19T14:04:39Z</time>
      </trkpt>
      <trkpt lat="43.77926" lon="5.33726">
        <ele>450.753357</ele>
        <time>2019-02-19T14:04:54Z</time>
      </trkpt>
      <trkpt lat="43.7792" lon="5.33743">
        <ele>447.41861</ele>
        <time>2019-02-19T14:05:11Z</time>
      </trkpt>
      <trkpt lat="43.77909" lon="5.3376">
        <ele>444.210754</ele>
        <time>2019-02-19T14:05:27Z</time>
      </trkpt>
      <trkpt lat="43.77902" lon="5.33776">
        <ele>440.704895</ele>
        <time>2019-02-19T14:05:43Z</time>
      </trkpt>
      <trkpt lat="43.77893" lon="5.33792">
        <ele>437.531281</ele>
        <time>2019-02-19T14:06:01Z</time>
      </trkpt>
      <trkpt lat="43.77882" lon="5.33804">
        <ele>435.661377</ele>
        <time>2019-02-19T14:06:16Z</time>
      </trkpt>
      <trkpt lat="43.77869" lon="5.33816">
        <ele>433.868835</ele>
        <time>2019-02-19T14:06:32Z</time>
      </trkpt>
      <trkpt lat="43.77856" lon="5.33822">
        <ele>433.659119</ele>
        <time>2019-02-19T14:06:49Z</time>
      </trkpt>
      <trkpt lat="43.77844" lon="5.33832">
        <ele>432.325165</ele>
        <time>2019-02-19T14:07:05Z</time>
      </trkpt>
      <trkpt lat="43.77845" lon="5.33853">
        <ele>428.626068</ele>
        <time>2019-02-19T14:07:21Z</time>
      </trkpt>
      <trkpt lat="43.77835" lon="5.33871">
        <ele>426.863129</ele>
        <time>2019-02-19T14:07:37Z</time>
      </trkpt>
      <trkpt lat="43.77818" lon="5.33897">
        <ele>423.887543</ele>
        <time>2019-02-19T14:07:53Z</time>
      </trkpt>
      <trkpt lat="43.7781" lon="5.33914">
        <ele>421.313538</ele>
        <time>2019-02-19T14:08:08Z</time>
      </trkpt>
      <trkpt lat="43.77802" lon="5.3393">
        <ele>419.663116</ele>
        <time>2019-02-19T14:08:25Z</time>
      </trkpt>
      <trkpt lat="43.77798" lon="5.33949">
        <ele>417.345947</ele>
        <time>2019-02-19T14:08:40Z</time>
      </trkpt>
      <trkpt lat="43.77783" lon="5.3397">
        <ele>413.992798</ele>
        <time>2019-02-19T14:08:55Z</time>
      </trkpt>
      <trkpt lat="43.77769" lon="5.33987">
        <ele>410.293549</ele>
        <time>2019-02-19T14:09:11Z</time>
      </trkpt>
      <trkpt lat="43.77758" lon="5.33998">
        <ele>407.238953</ele>
        <time>2019-02-19T14:09:26Z</time>
      </trkpt>
      <trkpt lat="43.77748" lon="5.34013">
        <ele>406.330017</ele>
        <time>2019-02-19T14:09:42Z</time>
      </trkpt>
      <trkpt lat="43.77743" lon="5.34031">
        <ele>406.548004</ele>
        <time>2019-02-19T14:09:58Z</time>
      </trkpt>
      <trkpt lat="43.77719" lon="5.34019">
        <ele>404.481384</ele>
        <time>2019-02-19T14:10:13Z</time>
      </trkpt>
      <trkpt lat="43.77704" lon="5.34027">
        <ele>403.46167</ele>
        <time>2019-02-19T14:10:28Z</time>
      </trkpt>
      <trkpt lat="43.77686" lon="5.34028">
        <ele>402.102448</ele>
        <time>2019-02-19T14:10:44Z</time>
      </trkpt>
      <trkpt lat="43.77672" lon="5.34032">
        <ele>401.003235</ele>
        <time>2019-02-19T14:10:59Z</time>
      </trkpt>
      <trkpt lat="43.77655" lon="5.34029">
        <ele>400.253052</ele>
        <time>2019-02-19T14:11:15Z</time>
      </trkpt>
      <trkpt lat="43.77643" lon="5.34037">
        <ele>399.21814</ele>
        <time>2019-02-19T14:11:31Z</time>
      </trkpt>
      <trkpt lat="43.77631" lon="5.34048">
        <ele>397.476501</ele>
        <time>2019-02-19T14:11:49Z</time>
      </trkpt>
      <trkpt lat="43.77612" lon="5.34056">
        <ele>394.776672</ele>
        <time>2019-02-19T14:12:05Z</time>
      </trkpt>
      <trkpt lat="43.77596" lon="5.34067">
        <ele>391.187195</ele>
        <time>2019-02-19T14:12:20Z</time>
      </trkpt>
      <trkpt lat="43.77581" lon="5.34079">
        <ele>386.990326</ele>
        <time>2019-02-19T14:12:36Z</time>
      </trkpt>
      <trkpt lat="43.77569" lon="5.34086">
        <ele>386.914246</ele>
        <time>2019-02-19T14:12:52Z</time>
      </trkpt>
      <trkpt lat="43.77558" lon="5.34099">
        <ele>387.237549</ele>
        <time>2019-02-19T14:13:10Z</time>
      </trkpt>
      <trkpt lat="43.77549" lon="5.34126">
        <ele>386.324402</ele>
        <time>2019-02-19T14:13:25Z</time>
      </trkpt>
      <trkpt lat="43.77542" lon="5.34146">
        <ele>384.765991</ele>
        <time>2019-02-19T14:13:40Z</time>
      </trkpt>
      <trkpt lat="43.77533" lon="5.34173">
        <ele>381.627197</ele>
        <time>2019-02-19T14:13:56Z</time>
      </trkpt>
      <trkpt lat="43.77523" lon="5.34193">
        <ele>377.668793</ele>
        <time>2019-02-19T14:14:12Z</time>
      </trkpt>
      <trkpt lat="43.77515" lon="5.34208">
        <ele>374.29895</ele>
        <time>2019-02-19T14:14:36Z</time>
      </trkpt>
      <trkpt lat="43.77511" lon="5.34227">
        <ele>371.151337</ele>
        <time>2019-02-19T14:14:51Z</time>
      </trkpt>
      <trkpt lat="43.775" lon="5.34246">
        <ele>365.711975</ele>
        <time>2019-02-19T14:15:07Z</time>
      </trkpt>
      <trkpt lat="43.7749" lon="5.34259">
        <ele>364.981201</ele>
        <time>2019-02-19T14:15:25Z</time>
      </trkpt>
      <trkpt lat="43.7749" lon="5.34278">
        <ele>362.48053</ele>
        <time>2019-02-19T14:15:50Z</time>
      </trkpt>
      <trkpt lat="43.77495" lon="5.34299">
        <ele>359.259521</ele>
        <time>2019-02-19T14:16:05Z</time>
      </trkpt>
      <trkpt lat="43.77497" lon="5.3432">
        <ele>356.288971</ele>
        <time>2019-02-19T14:16:20Z</time>
      </trkpt>
      <trkpt lat="43.775" lon="5.34339">
        <ele>353.725342</ele>
        <time>2019-02-19T14:16:37Z</time>
      </trkpt>
      <trkpt lat="43.77499" lon="5.34365">
        <ele>352.212646</ele>
        <time>2019-02-19T14:16:53Z</time>
      </trkpt>
      <trkpt lat="43.77504" lon="5.34391">
        <ele>351.723175</ele>
        <time>2019-02-19T14:17:08Z</time>
      </trkpt>
      <trkpt lat="43.77506" lon="5.34414">
        <ele>351.110291</ele>
        <time>2019-02-19T14:17:24Z</time>
      </trkpt>
      <trkpt lat="43.77504" lon="5.34434">
        <ele>349.582245</ele>
        <time>2019-02-19T14:17:39Z</time>
      </trkpt>
      <trkpt lat="43.77496" lon="5.34455">
        <ele>347.425049</ele>
        <time>2019-02-19T14:17:55Z</time>
      </trkpt>
      <trkpt lat="43.77491" lon="5.34474">
        <ele>346.678619</ele>
        <time>2019-02-19T14:18:10Z</time>
      </trkpt>
      <trkpt lat="43.77485" lon="5.34498">
        <ele>345.479553</ele>
        <time>2019-02-19T14:18:25Z</time>
      </trkpt>
      <trkpt lat="43.77483" lon="5.34517">
        <ele>344.458466</ele>
        <time>2019-02-19T14:18:44Z</time>
      </trkpt>
      <trkpt lat="43.77474" lon="5.34543">
        <ele>342.820984</ele>
        <time>2019-02-19T14:19:00Z</time>
      </trkpt>
      <trkpt lat="43.77478" lon="5.34565">
        <ele>341.549316</ele>
        <time>2019-02-19T14:19:16Z</time>
      </trkpt>
      <trkpt lat="43.77473" lon="5.34584">
        <ele>340.077087</ele>
        <time>2019-02-19T14:19:32Z</time>
      </trkpt>
      <trkpt lat="43.77457" lon="5.34612">
        <ele>337.607849</ele>
        <time>2019-02-19T14:19:48Z</time>
      </trkpt>
      <trkpt lat="43.77447" lon="5.34624">
        <ele>335.674744</ele>
        <time>2019-02-19T14:20:03Z</time>
      </trkpt>
      <trkpt lat="43.77444" lon="5.34643">
        <ele>334.1651</ele>
        <time>2019-02-19T14:20:28Z</time>
      </trkpt>
      <trkpt lat="43.77443" lon="5.34673">
        <ele>331.435333</ele>
        <time>2019-02-19T14:20:44Z</time>
      </trkpt>
      <trkpt lat="43.77436" lon="5.3469">
        <ele>327.807617</ele>
        <time>2019-02-19T14:21:01Z</time>
      </trkpt>
      <trkpt lat="43.77438" lon="5.3471">
        <ele>325.456818</ele>
        <time>2019-02-19T14:21:16Z</time>
      </trkpt>
      <trkpt lat="43.77435" lon="5.3473">
        <ele>322.078949</ele>
        <time>2019-02-19T14:21:32Z</time>
      </trkpt>
      <trkpt lat="43.77423" lon="5.34752">
        <ele>315.765106</ele>
        <time>2019-02-19T14:21:48Z</time>
      </trkpt>
      <trkpt lat="43.7741" lon="5.34763">
        <ele>313.601135</ele>
        <time>2019-02-19T14:22:04Z</time>
      </trkpt>
      <trkpt lat="43.77399" lon="5.34774">
        <ele>312.874481</ele>
        <time>2019-02-19T14:22:25Z</time>
      </trkpt>
      <trkpt lat="43.77388" lon="5.34788">
        <ele>311.295074</ele>
        <time>2019-02-19T14:22:41Z</time>
      </trkpt>
      <trkpt lat="43.77376" lon="5.34805">
        <ele>308.684692</ele>
        <time>2019-02-19T14:22:57Z</time>
      </trkpt>
      <trkpt lat="43.77364" lon="5.34818">
        <ele>305.726013</ele>
        <time>2019-02-19T14:23:13Z</time>
      </trkpt>
      <trkpt lat="43.77353" lon="5.34836">
        <ele>301.608215</ele>
        <time>2019-02-19T14:23:29Z</time>
      </trkpt>
      <trkpt lat="43.77343" lon="5.3485">
        <ele>298.729065</ele>
        <time>2019-02-19T14:23:46Z</time>
      </trkpt>
      <trkpt lat="43.7733" lon="5.34854">
        <ele>295.961365</ele>
        <time>2019-02-19T14:24:02Z</time>
      </trkpt>
      <trkpt lat="43.77318" lon="5.34843">
        <ele>294.903198</ele>
        <time>2019-02-19T14:24:18Z</time>
      </trkpt>
      <trkpt lat="43.77306" lon="5.34831">
        <ele>294.462463</ele>
        <time>2019-02-19T14:24:41Z</time>
      </trkpt>
      <trkpt lat="43.77293" lon="5.34824">
        <ele>293.16449</ele>
        <time>2019-02-19T14:24:57Z</time>
      </trkpt>
      <trkpt lat="43.77278" lon="5.34821">
        <ele>290.882324</ele>
        <time>2019-02-19T14:25:12Z</time>
      </trkpt>
      <trkpt lat="43.77264" lon="5.34817">
        <ele>288.713806</ele>
        <time>2019-02-19T14:25:28Z</time>
      </trkpt>
      <trkpt lat="43.77251" lon="5.34815">
        <ele>286.334717</ele>
        <time>2019-02-19T14:25:45Z</time>
      </trkpt>
      <trkpt lat="43.77236" lon="5.34814">
        <ele>281.699188</ele>
        <time>2019-02-19T14:26:01Z</time>
      </trkpt>
      <trkpt lat="43.77224" lon="5.34805">
        <ele>278.62439</ele>
        <time>2019-02-19T14:26:18Z</time>
      </trkpt>
      <trkpt lat="43.77216" lon="5.3479">
        <ele>277.496399</ele>
        <time>2019-02-19T14:26:36Z</time>
      </trkpt>
      <trkpt lat="43.77209" lon="5.34769">
        <ele>277.05542</ele>
        <time>2019-02-19T14:26:52Z</time>
      </trkpt>
      <trkpt lat="43.77207" lon="5.34748">
        <ele>278.297607</ele>
        <time>2019-02-19T14:27:07Z</time>
      </trkpt>
      <trkpt lat="43.7721" lon="5.34726">
        <ele>280.767853</ele>
        <time>2019-02-19T14:27:22Z</time>
      </trkpt>
      <trkpt lat="43.77211" lon="5.34699">
        <ele>282.69281</ele>
        <time>2019-02-19T14:27:38Z</time>
      </trkpt>
      <trkpt lat="43.77201" lon="5.34684">
        <ele>280.176971</ele>
        <time>2019-02-19T14:27:55Z</time>
      </trkpt>
      <trkpt lat="43.77187" lon="5.34683">
        <ele>274.898193</ele>
        <time>2019-02-19T14:28:18Z</time>
      </trkpt>
      <trkpt lat="43.77174" lon="5.34683">
        <ele>269.691559</ele>
        <time>2019-02-19T14:28:37Z</time>
      </trkpt>
      <trkpt lat="43.77166" lon="5.34667">
        <ele>267.654388</ele>
        <time>2019-02-19T14:28:53Z</time>
      </trkpt>
      <trkpt lat="43.77159" lon="5.34647">
        <ele>266.823944</ele>
        <time>2019-02-19T14:29:09Z</time>
      </trkpt>
      <trkpt lat="43.77158" lon="5.34629">
        <ele>267.425079</ele>
        <time>2019-02-19T14:29:24Z</time>
      </trkpt>
      <trkpt lat="43.77161" lon="5.3461">
        <ele>268.850494</ele>
        <time>2019-02-19T14:29:44Z</time>
      </trkpt>
      <trkpt lat="43.77164" lon="5.34587">
        <ele>270.367493</ele>
        <time>2019-02-19T14:30:00Z</time>
      </trkpt>
      <trkpt lat="43.77167" lon="5.34565">
        <ele>272.943848</ele>
        <time>2019-02-19T14:30:16Z</time>
      </trkpt>
      <trkpt lat="43.77154" lon="5.34555">
        <ele>271.698822</ele>
        <time>2019-02-19T14:30:55Z</time>
      </trkpt>
      <trkpt lat="43.77141" lon="5.34573">
        <ele>267.38974</ele>
        <time>2019-02-19T14:31:11Z</time>
      </trkpt>
      <trkpt lat="43.77126" lon="5.34579">
        <ele>264.00174</ele>
        <time>2019-02-19T14:31:26Z</time>
      </trkpt>
      <trkpt lat="43.77112" lon="5.34572">
        <ele>262.134705</ele>
        <time>2019-02-19T14:31:59Z</time>
      </trkpt>
      <trkpt lat="43.77099" lon="5.34571">
        <ele>259.72818</ele>
        <time>2019-02-19T14:32:14Z</time>
      </trkpt>
      <trkpt lat="43.77082" lon="5.34575">
        <ele>256.404694</ele>
        <time>2019-02-19T14:32:29Z</time>
      </trkpt>
      <trkpt lat="43.77073" lon="5.34591">
        <ele>253.407028</ele>
        <time>2019-02-19T14:33:04Z</time>
      </trkpt>
      <trkpt lat="43.77066" lon="5.34607">
        <ele>250.36618</ele>
        <time>2019-02-19T14:33:23Z</time>
      </trkpt>
      <trkpt lat="43.77054" lon="5.34619">
        <ele>247.403656</ele>
        <time>2019-02-19T14:33:41Z</time>
      </trkpt>
      <trkpt lat="43.77049" lon="5.34637">
        <ele>244.586288</ele>
        <time>2019-02-19T14:33:58Z</time>
      </trkpt>
      <trkpt lat="43.77035" lon="5.34641">
        <ele>242.530304</ele>
        <time>2019-02-19T14:34:23Z</time>
      </trkpt>
      <trkpt lat="43.77022" lon="5.34645">
        <ele>240.410385</ele>
        <time>2019-02-19T14:34:42Z</time>
      </trkpt>
      <trkpt lat="43.77008" lon="5.34631">
        <ele>239.997391</ele>
        <time>2019-02-19T14:34:58Z</time>
      </trkpt>
      <trkpt lat="43.76994" lon="5.34626">
        <ele>238.615234</ele>
        <time>2019-02-19T14:35:15Z</time>
      </trkpt>
      <trkpt lat="43.76979" lon="5.34635">
        <ele>235.910278</ele>
        <time>2019-02-19T14:35:30Z</time>
      </trkpt>
      <trkpt lat="43.7697" lon="5.34652">
        <ele>233.532761</ele>
        <time>2019-02-19T14:35:45Z</time>
      </trkpt>
      <trkpt lat="43.76963" lon="5.34668">
        <ele>231.376251</ele>
        <time>2019-02-19T14:36:00Z</time>
      </trkpt>
      <trkpt lat="43.76951" lon="5.3468">
        <ele>228.781433</ele>
        <time>2019-02-19T14:36:16Z</time>
      </trkpt>
      <trkpt lat="43.76938" lon="5.34692">
        <ele>226.457703</ele>
        <time>2019-02-19T14:36:31Z</time>
      </trkpt>
      <trkpt lat="43.76928" lon="5.34705">
        <ele>224.58252</ele>
        <time>2019-02-19T14:36:57Z</time>
      </trkpt>
      <trkpt lat="43.76927" lon="5.34724">
        <ele>223.180191</ele>
        <time>2019-02-19T14:38:06Z</time>
      </trkpt>
      <trkpt lat="43.76928" lon="5.3475">
        <ele>221.411163</ele>
        <time>2019-02-19T14:38:22Z</time>
      </trkpt>
      <trkpt lat="43.76925" lon="5.34772">
        <ele>219.97937</ele>
        <time>2019-02-19T14:38:37Z</time>
      </trkpt>
      <trkpt lat="43.76923" lon="5.34796">
        <ele>218.539032</ele>
        <time>2019-02-19T14:38:52Z</time>
      </trkpt>
      <trkpt lat="43.7692" lon="5.3482">
        <ele>216.954071</ele>
        <time>2019-02-19T14:39:08Z</time>
      </trkpt>
      <trkpt lat="43.76914" lon="5.34847">
        <ele>216.050003</ele>
        <time>2019-02-19T14:39:23Z</time>
      </trkpt>
      <trkpt lat="43.76905" lon="5.34872">
        <ele>216.580505</ele>
        <time>2019-02-19T14:39:38Z</time>
      </trkpt>
      <trkpt lat="43.76903" lon="5.34892">
        <ele>216.02832</ele>
        <time>2019-02-19T14:39:56Z</time>
      </trkpt>
      <trkpt lat="43.76893" lon="5.3492">
        <ele>215.447998</ele>
        <time>2019-02-19T14:40:12Z</time>
      </trkpt>
      <trkpt lat="43.76888" lon="5.34944">
        <ele>213.779968</ele>
        <time>2019-02-19T14:40:27Z</time>
      </trkpt>
      <trkpt lat="43.76884" lon="5.34971">
        <ele>211.633728</ele>
        <time>2019-02-19T14:40:43Z</time>
      </trkpt>
      <trkpt lat="43.76873" lon="5.34994">
        <ele>210.155579</ele>
        <time>2019-02-19T14:40:58Z</time>
      </trkpt>
      <trkpt lat="43.76863" lon="5.35018">
        <ele>207.826508</ele>
        <time>2019-02-19T14:41:14Z</time>
      </trkpt>
      <trkpt lat="43.76867" lon="5.35039">
        <ele>205.265015</ele>
        <time>2019-02-19T14:41:29Z</time>
      </trkpt>
      <trkpt lat="43.76857" lon="5.3506">
        <ele>202.888763</ele>
        <time>2019-02-19T14:41:45Z</time>
      </trkpt>
      <trkpt lat="43.76849" lon="5.35089">
        <ele>199.663773</ele>
        <time>2019-02-19T14:42:01Z</time>
      </trkpt>
      <trkpt lat="43.76845" lon="5.35108">
        <ele>198.496201</ele>
        <time>2019-02-19T14:42:44Z</time>
      </trkpt>
      <trkpt lat="43.76838" lon="5.35124">
        <ele>197.511444</ele>
        <time>2019-02-19T14:43:03Z</time>
      </trkpt>
      <trkpt lat="43.76834" lon="5.35143">
        <ele>196.436996</ele>
        <time>2019-02-19T14:43:19Z</time>
      </trkpt>
      <trkpt lat="43.76828" lon="5.35166">
        <ele>195.132355</ele>
        <time>2019-02-19T14:43:35Z</time>
      </trkpt>
      <trkpt lat="43.76822" lon="5.35185">
        <ele>195.105865</ele>
        <time>2019-02-19T14:43:51Z</time>
      </trkpt>
      <trkpt lat="43.76816" lon="5.35205">
        <ele>195.111053</ele>
        <time>2019-02-19T14:44:06Z</time>
      </trkpt>
      <trkpt lat="43.76809" lon="5.35228">
        <ele>195.078705</ele>
        <time>2019-02-19T14:44:21Z</time>
      </trkpt>
      <trkpt lat="43.76799" lon="5.35254">
        <ele>195.021271</ele>
        <time>2019-02-19T14:44:37Z</time>
      </trkpt>
      <trkpt lat="43.76788" lon="5.35273">
        <ele>195.152649</ele>
        <time>2019-02-19T14:44:53Z</time>
      </trkpt>
      <trkpt lat="43.76786" lon="5.35292">
        <ele>195.286743</ele>
        <time>2019-02-19T14:45:08Z</time>
      </trkpt>
      <trkpt lat="43.76778" lon="5.35312">
        <ele>195.498795</ele>
        <time>2019-02-19T14:45:23Z</time>
      </trkpt>
      <trkpt lat="43.7677" lon="5.35332">
        <ele>195.746933</ele>
        <time>2019-02-19T14:45:38Z</time>
      </trkpt>
      <trkpt lat="43.76758" lon="5.35359">
        <ele>195.746292</ele>
        <time>2019-02-19T14:45:54Z</time>
      </trkpt>
      <trkpt lat="43.7675" lon="5.35382">
        <ele>195.411743</ele>
        <time>2019-02-19T14:46:10Z</time>
      </trkpt>
      <trkpt lat="43.76742" lon="5.35402">
        <ele>195.173859</ele>
        <time>2019-02-19T14:46:25Z</time>
      </trkpt>
      <trkpt lat="43.76737" lon="5.35425">
        <ele>195.222244</ele>
        <time>2019-02-19T14:46:41Z</time>
      </trkpt>
      <trkpt lat="43.76729" lon="5.35447">
        <ele>195.81105</ele>
        <time>2019-02-19T14:46:56Z</time>
      </trkpt>
      <trkpt lat="43.76722" lon="5.35471">
        <ele>196.520538</ele>
        <time>2019-02-19T14:47:12Z</time>
      </trkpt>
      <trkpt lat="43.76712" lon="5.35493">
        <ele>197.252106</ele>
        <time>2019-02-19T14:47:28Z</time>
      </trkpt>
      <trkpt lat="43.76701" lon="5.35517">
        <ele>198.742859</ele>
        <time>2019-02-19T14:47:44Z</time>
      </trkpt>
      <trkpt lat="43.76694" lon="5.35534">
        <ele>199.847076</ele>
        <time>2019-02-19T14:48:00Z</time>
      </trkpt>
      <trkpt lat="43.76687" lon="5.35561">
        <ele>201.382874</ele>
        <time>2019-02-19T14:48:16Z</time>
      </trkpt>
      <trkpt lat="43.76679" lon="5.35584">
        <ele>202.49176</ele>
        <time>2019-02-19T14:48:32Z</time>
      </trkpt>
      <trkpt lat="43.76674" lon="5.35608">
        <ele>204.236298</ele>
        <time>2019-02-19T14:48:47Z</time>
      </trkpt>
      <trkpt lat="43.76665" lon="5.35628">
        <ele>205.221558</ele>
        <time>2019-02-19T14:49:03Z</time>
      </trkpt>
      <trkpt lat="43.76662" lon="5.35653">
        <ele>207.01123</ele>
        <time>2019-02-19T14:49:18Z</time>
      </trkpt>
      <trkpt lat="43.76657" lon="5.35683">
        <ele>208.559937</ele>
        <time>2019-02-19T14:49:34Z</time>
      </trkpt>
      <trkpt lat="43.76653" lon="5.35708">
        <ele>209.21579</ele>
        <time>2019-02-19T14:49:49Z</time>
      </trkpt>
      <trkpt lat="43.76647" lon="5.35729">
        <ele>209.418976</ele>
        <time>2019-02-19T14:50:05Z</time>
      </trkpt>
      <trkpt lat="43.76647" lon="5.3575">
        <ele>209.85141</ele>
        <time>2019-02-19T14:50:20Z</time>
      </trkpt>
      <trkpt lat="43.76642" lon="5.35774">
        <ele>208.900772</ele>
        <time>2019-02-19T14:50:36Z</time>
      </trkpt>
      <trkpt lat="43.7664" lon="5.35795">
        <ele>208.213135</ele>
        <time>2019-02-19T14:50:51Z</time>
      </trkpt>
      <trkpt lat="43.7664" lon="5.35817">
        <ele>207.811905</ele>
        <time>2019-02-19T14:51:06Z</time>
      </trkpt>
      <trkpt lat="43.76635" lon="5.35837">
        <ele>206.92157</ele>
        <time>2019-02-19T14:51:22Z</time>
      </trkpt>
      <trkpt lat="43.7663" lon="5.35862">
        <ele>206.427155</ele>
        <time>2019-02-19T14:51:38Z</time>
      </trkpt>
      <trkpt lat="43.76618" lon="5.35854">
        <ele>205.367813</ele>
        <time>2019-02-19T14:52:21Z</time>
      </trkpt>
      <trkpt lat="43.76597" lon="5.35854">
        <ele>203.630219</ele>
        <time>2019-02-19T14:52:37Z</time>
      </trkpt>
      <trkpt lat="43.7658" lon="5.35854">
        <ele>203.006683</ele>
        <time>2019-02-19T14:52:52Z</time>
      </trkpt>
      <trkpt lat="43.76563" lon="5.35851">
        <ele>205.748871</ele>
        <time>2019-02-19T14:53:08Z</time>
      </trkpt>
      <trkpt lat="43.76547" lon="5.35851">
        <ele>208.471283</ele>
        <time>2019-02-19T14:53:23Z</time>
      </trkpt>
      <trkpt lat="43.76534" lon="5.35868">
        <ele>209.799622</ele>
        <time>2019-02-19T14:53:38Z</time>
      </trkpt>
      <trkpt lat="43.76532" lon="5.3589">
        <ele>209.00563</ele>
        <time>2019-02-19T14:53:54Z</time>
      </trkpt>
      <trkpt lat="43.76526" lon="5.3591">
        <ele>208.533936</ele>
        <time>2019-02-19T14:54:10Z</time>
      </trkpt>
      <trkpt lat="43.76512" lon="5.35912">
        <ele>209.474045</ele>
        <time>2019-02-19T14:54:26Z</time>
      </trkpt>
      <trkpt lat="43.76498" lon="5.35914">
        <ele>210.53035</ele>
        <time>2019-02-19T14:54:42Z</time>
      </trkpt>
      <trkpt lat="43.76485" lon="5.3591">
        <ele>212.677917</ele>
        <time>2019-02-19T14:55:06Z</time>
      </trkpt>
      <trkpt lat="43.76472" lon="5.35917">
        <ele>214.002747</ele>
        <time>2019-02-19T14:55:29Z</time>
      </trkpt>
      <trkpt lat="43.76463" lon="5.35935">
        <ele>214.254425</ele>
        <time>2019-02-19T14:55:44Z</time>
      </trkpt>
      <trkpt lat="43.76453" lon="5.35952">
        <ele>214.559662</ele>
        <time>2019-02-19T14:56:00Z</time>
      </trkpt>
      <trkpt lat="43.76442" lon="5.35964">
        <ele>215.062241</ele>
        <time>2019-02-19T14:56:17Z</time>
      </trkpt>
      <trkpt lat="43.76428" lon="5.35976">
        <ele>215.784485</ele>
        <time>2019-02-19T14:56:33Z</time>
      </trkpt>
    </trkseg>
  </trk>
</gpx>